<?xml version="1.0" encoding="UTF-8" standalone="no" ?>
<gpx xmlns="http://www.topografix.com/GPX/1/1" xmlns:xsi="http://www.w3.org/2001/XMLSchema-instance" xsi:schemaLocation="http://www.topografix.com/GPX/1/1 http://www.topografix.com/GPX/1/1/gpx.xsd" version="1.1" creator="VisuGPX - https://www.visugpx.com">
  <metadata>
    <name>Tracé actuel: 06 JUIL 2020 12:58</name>
    <desc><![CDATA[randonnée angecourt_mairy  aller retour via voie verte et les gravières
]]></desc>
  </metadata>
  <trk>
    <name><![CDATA[Tracé actuel: 06 JUIL 2020 12:58]]></name>
    <trkseg>
      <trkpt lat="49.63402" lon="4.9808">
        <ele>193.84</ele>
        <time>2020-07-06T10:58:35Z</time>
      </trkpt>
      <trkpt lat="49.63422" lon="4.98015">
        <ele>194.32</ele>
        <time>2020-07-06T10:58:53Z</time>
      </trkpt>
      <trkpt lat="49.63409" lon="4.98001">
        <ele>194.32</ele>
        <time>2020-07-06T10:59:12Z</time>
      </trkpt>
      <trkpt lat="49.63399" lon="4.97985">
        <ele>194.32</ele>
        <time>2020-07-06T10:59:31Z</time>
      </trkpt>
      <trkpt lat="49.63432" lon="4.98041">
        <ele>279.88</ele>
        <time>2020-07-06T10:59:44Z</time>
      </trkpt>
      <trkpt lat="49.63397" lon="4.98017">
        <ele>279.88</ele>
        <time>2020-07-06T11:00:02Z</time>
      </trkpt>
      <trkpt lat="49.63379" lon="4.97968">
        <ele>211.63</ele>
        <time>2020-07-06T11:00:19Z</time>
      </trkpt>
      <trkpt lat="49.63383" lon="4.97952">
        <ele>215.95</ele>
        <time>2020-07-06T11:00:35Z</time>
      </trkpt>
      <trkpt lat="49.63386" lon="4.97933">
        <ele>225.09</ele>
        <time>2020-07-06T11:00:53Z</time>
      </trkpt>
      <trkpt lat="49.63401" lon="4.97941">
        <ele>226.05</ele>
        <time>2020-07-06T11:01:09Z</time>
      </trkpt>
      <trkpt lat="49.63407" lon="4.97944">
        <ele>226.05</ele>
        <time>2020-07-06T11:01:27Z</time>
      </trkpt>
      <trkpt lat="49.63453" lon="4.97876">
        <ele>219.8</ele>
        <time>2020-07-06T11:01:48Z</time>
      </trkpt>
      <trkpt lat="49.63472" lon="4.97865">
        <ele>210.19</ele>
        <time>2020-07-06T11:02:04Z</time>
      </trkpt>
      <trkpt lat="49.63485" lon="4.97847">
        <ele>202.49</ele>
        <time>2020-07-06T11:02:22Z</time>
      </trkpt>
      <trkpt lat="49.63486" lon="4.97845">
        <ele>202.01</ele>
        <time>2020-07-06T11:02:23Z</time>
      </trkpt>
      <trkpt lat="49.63492" lon="4.97827">
        <ele>190</ele>
        <time>2020-07-06T11:02:38Z</time>
      </trkpt>
      <trkpt lat="49.6351" lon="4.97815">
        <ele>185.19</ele>
        <time>2020-07-06T11:02:56Z</time>
      </trkpt>
      <trkpt lat="49.63521" lon="4.97798">
        <ele>182.79</ele>
        <time>2020-07-06T11:03:12Z</time>
      </trkpt>
      <trkpt lat="49.63535" lon="4.97782">
        <ele>176.06</ele>
        <time>2020-07-06T11:03:29Z</time>
      </trkpt>
      <trkpt lat="49.63546" lon="4.97756">
        <ele>170.77</ele>
        <time>2020-07-06T11:03:52Z</time>
      </trkpt>
      <trkpt lat="49.63555" lon="4.97736">
        <ele>168.85</ele>
        <time>2020-07-06T11:04:08Z</time>
      </trkpt>
      <trkpt lat="49.63566" lon="4.97711">
        <ele>167.41</ele>
        <time>2020-07-06T11:04:28Z</time>
      </trkpt>
      <trkpt lat="49.63577" lon="4.97686">
        <ele>166.45</ele>
        <time>2020-07-06T11:04:48Z</time>
      </trkpt>
      <trkpt lat="49.63594" lon="4.97673">
        <ele>165.96</ele>
        <time>2020-07-06T11:05:06Z</time>
      </trkpt>
      <trkpt lat="49.63616" lon="4.97668">
        <ele>165.96</ele>
        <time>2020-07-06T11:05:27Z</time>
      </trkpt>
      <trkpt lat="49.63624" lon="4.97677">
        <ele>164.04</ele>
        <time>2020-07-06T11:05:38Z</time>
      </trkpt>
      <trkpt lat="49.63642" lon="4.97697">
        <ele>159.72</ele>
        <time>2020-07-06T11:05:57Z</time>
      </trkpt>
      <trkpt lat="49.63658" lon="4.97712">
        <ele>160.2</ele>
        <time>2020-07-06T11:06:15Z</time>
      </trkpt>
      <trkpt lat="49.63677" lon="4.97729">
        <ele>159.24</ele>
        <time>2020-07-06T11:06:36Z</time>
      </trkpt>
      <trkpt lat="49.63693" lon="4.9774">
        <ele>156.83</ele>
        <time>2020-07-06T11:06:54Z</time>
      </trkpt>
      <trkpt lat="49.63711" lon="4.97756">
        <ele>159.24</ele>
        <time>2020-07-06T11:07:13Z</time>
      </trkpt>
      <trkpt lat="49.63726" lon="4.97767">
        <ele>155.87</ele>
        <time>2020-07-06T11:07:30Z</time>
      </trkpt>
      <trkpt lat="49.63748" lon="4.97781">
        <ele>157.31</ele>
        <time>2020-07-06T11:07:51Z</time>
      </trkpt>
      <trkpt lat="49.63767" lon="4.97796">
        <ele>158.75</ele>
        <time>2020-07-06T11:08:10Z</time>
      </trkpt>
      <trkpt lat="49.63782" lon="4.97809">
        <ele>161.64</ele>
        <time>2020-07-06T11:08:27Z</time>
      </trkpt>
      <trkpt lat="49.63798" lon="4.97827">
        <ele>159.72</ele>
        <time>2020-07-06T11:08:48Z</time>
      </trkpt>
      <trkpt lat="49.63813" lon="4.97843">
        <ele>156.35</ele>
        <time>2020-07-06T11:09:07Z</time>
      </trkpt>
      <trkpt lat="49.63838" lon="4.97862">
        <ele>157.31</ele>
        <time>2020-07-06T11:09:27Z</time>
      </trkpt>
      <trkpt lat="49.63851" lon="4.97876">
        <ele>157.31</ele>
        <time>2020-07-06T11:09:45Z</time>
      </trkpt>
      <trkpt lat="49.63869" lon="4.97894">
        <ele>154.91</ele>
        <time>2020-07-06T11:10:03Z</time>
      </trkpt>
      <trkpt lat="49.63886" lon="4.97911">
        <ele>153.95</ele>
        <time>2020-07-06T11:10:23Z</time>
      </trkpt>
      <trkpt lat="49.63898" lon="4.97925">
        <ele>152.03</ele>
        <time>2020-07-06T11:10:43Z</time>
      </trkpt>
      <trkpt lat="49.63919" lon="4.97947">
        <ele>149.14</ele>
        <time>2020-07-06T11:11:04Z</time>
      </trkpt>
      <trkpt lat="49.63934" lon="4.9796">
        <ele>150.58</ele>
        <time>2020-07-06T11:11:23Z</time>
      </trkpt>
      <trkpt lat="49.63953" lon="4.97976">
        <ele>150.1</ele>
        <time>2020-07-06T11:11:43Z</time>
      </trkpt>
      <trkpt lat="49.6397" lon="4.97992">
        <ele>151.06</ele>
        <time>2020-07-06T11:12:01Z</time>
      </trkpt>
      <trkpt lat="49.63984" lon="4.98005">
        <ele>151.06</ele>
        <time>2020-07-06T11:12:22Z</time>
      </trkpt>
      <trkpt lat="49.63997" lon="4.98023">
        <ele>148.18</ele>
        <time>2020-07-06T11:12:45Z</time>
      </trkpt>
      <trkpt lat="49.64028" lon="4.98043">
        <ele>152.99</ele>
        <time>2020-07-06T11:13:03Z</time>
      </trkpt>
      <trkpt lat="49.64043" lon="4.98059">
        <ele>152.03</ele>
        <time>2020-07-06T11:13:22Z</time>
      </trkpt>
      <trkpt lat="49.64056" lon="4.98075">
        <ele>149.14</ele>
        <time>2020-07-06T11:13:42Z</time>
      </trkpt>
      <trkpt lat="49.64073" lon="4.98094">
        <ele>143.85</ele>
        <time>2020-07-06T11:14:04Z</time>
      </trkpt>
      <trkpt lat="49.64097" lon="4.98113">
        <ele>146.74</ele>
        <time>2020-07-06T11:14:24Z</time>
      </trkpt>
      <trkpt lat="49.64109" lon="4.98127">
        <ele>144.82</ele>
        <time>2020-07-06T11:14:42Z</time>
      </trkpt>
      <trkpt lat="49.64122" lon="4.98141">
        <ele>144.34</ele>
        <time>2020-07-06T11:14:59Z</time>
      </trkpt>
      <trkpt lat="49.64146" lon="4.9816">
        <ele>145.3</ele>
        <time>2020-07-06T11:15:21Z</time>
      </trkpt>
      <trkpt lat="49.64167" lon="4.9818">
        <ele>146.74</ele>
        <time>2020-07-06T11:15:42Z</time>
      </trkpt>
      <trkpt lat="49.6419" lon="4.98197">
        <ele>147.22</ele>
        <time>2020-07-06T11:16:04Z</time>
      </trkpt>
      <trkpt lat="49.64207" lon="4.98213">
        <ele>149.62</ele>
        <time>2020-07-06T11:16:23Z</time>
      </trkpt>
      <trkpt lat="49.64226" lon="4.98229">
        <ele>152.03</ele>
        <time>2020-07-06T11:16:44Z</time>
      </trkpt>
      <trkpt lat="49.64244" lon="4.98246">
        <ele>152.51</ele>
        <time>2020-07-06T11:17:06Z</time>
      </trkpt>
      <trkpt lat="49.64258" lon="4.98261">
        <ele>152.03</ele>
        <time>2020-07-06T11:17:24Z</time>
      </trkpt>
      <trkpt lat="49.64278" lon="4.98277">
        <ele>151.54</ele>
        <time>2020-07-06T11:17:46Z</time>
      </trkpt>
      <trkpt lat="49.64299" lon="4.98298">
        <ele>148.18</ele>
        <time>2020-07-06T11:18:10Z</time>
      </trkpt>
      <trkpt lat="49.64318" lon="4.98316">
        <ele>145.3</ele>
        <time>2020-07-06T11:18:30Z</time>
      </trkpt>
      <trkpt lat="49.64335" lon="4.98333">
        <ele>145.3</ele>
        <time>2020-07-06T11:18:50Z</time>
      </trkpt>
      <trkpt lat="49.64355" lon="4.98345">
        <ele>146.26</ele>
        <time>2020-07-06T11:19:10Z</time>
      </trkpt>
      <trkpt lat="49.64375" lon="4.98362">
        <ele>147.22</ele>
        <time>2020-07-06T11:19:32Z</time>
      </trkpt>
      <trkpt lat="49.6439" lon="4.98371">
        <ele>141.45</ele>
        <time>2020-07-06T11:19:51Z</time>
      </trkpt>
      <trkpt lat="49.64406" lon="4.98389">
        <ele>139.05</ele>
        <time>2020-07-06T11:20:11Z</time>
      </trkpt>
      <trkpt lat="49.64428" lon="4.98396">
        <ele>144.82</ele>
        <time>2020-07-06T11:20:27Z</time>
      </trkpt>
      <trkpt lat="49.64443" lon="4.98406">
        <ele>142.41</ele>
        <time>2020-07-06T11:20:47Z</time>
      </trkpt>
      <trkpt lat="49.64464" lon="4.98418">
        <ele>140.49</ele>
        <time>2020-07-06T11:21:09Z</time>
      </trkpt>
      <trkpt lat="49.6448" lon="4.98435">
        <ele>126.07</ele>
        <time>2020-07-06T11:21:34Z</time>
      </trkpt>
      <trkpt lat="49.64492" lon="4.98443">
        <ele>123.67</ele>
        <time>2020-07-06T11:21:49Z</time>
      </trkpt>
      <trkpt lat="49.64514" lon="4.98458">
        <ele>126.55</ele>
        <time>2020-07-06T11:22:09Z</time>
      </trkpt>
      <trkpt lat="49.64533" lon="4.98468">
        <ele>127.03</ele>
        <time>2020-07-06T11:22:28Z</time>
      </trkpt>
      <trkpt lat="49.64561" lon="4.98481">
        <ele>133.28</ele>
        <time>2020-07-06T11:22:52Z</time>
      </trkpt>
      <trkpt lat="49.64589" lon="4.98494">
        <ele>144.34</ele>
        <time>2020-07-06T11:23:14Z</time>
      </trkpt>
      <trkpt lat="49.64611" lon="4.98507">
        <ele>145.3</ele>
        <time>2020-07-06T11:23:36Z</time>
      </trkpt>
      <trkpt lat="49.64613" lon="4.98507">
        <ele>145.78</ele>
        <time>2020-07-06T11:23:37Z</time>
      </trkpt>
      <trkpt lat="49.64633" lon="4.98514">
        <ele>149.62</ele>
        <time>2020-07-06T11:23:54Z</time>
      </trkpt>
      <trkpt lat="49.64654" lon="4.98525">
        <ele>152.03</ele>
        <time>2020-07-06T11:24:14Z</time>
      </trkpt>
      <trkpt lat="49.64675" lon="4.98535">
        <ele>156.35</ele>
        <time>2020-07-06T11:24:34Z</time>
      </trkpt>
      <trkpt lat="49.64696" lon="4.98547">
        <ele>156.83</ele>
        <time>2020-07-06T11:24:55Z</time>
      </trkpt>
      <trkpt lat="49.64719" lon="4.9856">
        <ele>154.91</ele>
        <time>2020-07-06T11:25:18Z</time>
      </trkpt>
      <trkpt lat="49.64741" lon="4.98572">
        <ele>151.06</ele>
        <time>2020-07-06T11:25:42Z</time>
      </trkpt>
      <trkpt lat="49.64761" lon="4.98585">
        <ele>148.18</ele>
        <time>2020-07-06T11:26:03Z</time>
      </trkpt>
      <trkpt lat="49.64783" lon="4.98597">
        <ele>148.18</ele>
        <time>2020-07-06T11:26:24Z</time>
      </trkpt>
      <trkpt lat="49.64803" lon="4.98608">
        <ele>148.66</ele>
        <time>2020-07-06T11:26:44Z</time>
      </trkpt>
      <trkpt lat="49.64823" lon="4.98617">
        <ele>150.58</ele>
        <time>2020-07-06T11:27:03Z</time>
      </trkpt>
      <trkpt lat="49.64843" lon="4.98629">
        <ele>153.95</ele>
        <time>2020-07-06T11:27:21Z</time>
      </trkpt>
      <trkpt lat="49.64864" lon="4.98642">
        <ele>155.39</ele>
        <time>2020-07-06T11:27:43Z</time>
      </trkpt>
      <trkpt lat="49.64883" lon="4.98656">
        <ele>154.91</ele>
        <time>2020-07-06T11:28:04Z</time>
      </trkpt>
      <trkpt lat="49.64904" lon="4.98673">
        <ele>153.95</ele>
        <time>2020-07-06T11:28:27Z</time>
      </trkpt>
      <trkpt lat="49.64909" lon="4.98676">
        <ele>153.95</ele>
        <time>2020-07-06T11:28:33Z</time>
      </trkpt>
      <trkpt lat="49.64928" lon="4.98683">
        <ele>152.51</ele>
        <time>2020-07-06T11:28:51Z</time>
      </trkpt>
      <trkpt lat="49.64951" lon="4.98699">
        <ele>152.51</ele>
        <time>2020-07-06T11:29:14Z</time>
      </trkpt>
      <trkpt lat="49.64968" lon="4.98717">
        <ele>151.54</ele>
        <time>2020-07-06T11:29:34Z</time>
      </trkpt>
      <trkpt lat="49.64989" lon="4.98734">
        <ele>152.99</ele>
        <time>2020-07-06T11:29:54Z</time>
      </trkpt>
      <trkpt lat="49.65007" lon="4.9875">
        <ele>153.95</ele>
        <time>2020-07-06T11:30:13Z</time>
      </trkpt>
      <trkpt lat="49.65024" lon="4.98764">
        <ele>154.91</ele>
        <time>2020-07-06T11:30:30Z</time>
      </trkpt>
      <trkpt lat="49.65041" lon="4.98781">
        <ele>154.91</ele>
        <time>2020-07-06T11:30:49Z</time>
      </trkpt>
      <trkpt lat="49.65058" lon="4.98798">
        <ele>155.39</ele>
        <time>2020-07-06T11:31:08Z</time>
      </trkpt>
      <trkpt lat="49.65075" lon="4.98814">
        <ele>155.87</ele>
        <time>2020-07-06T11:31:27Z</time>
      </trkpt>
      <trkpt lat="49.65093" lon="4.98833">
        <ele>154.91</ele>
        <time>2020-07-06T11:31:47Z</time>
      </trkpt>
      <trkpt lat="49.65112" lon="4.9885">
        <ele>155.39</ele>
        <time>2020-07-06T11:32:07Z</time>
      </trkpt>
      <trkpt lat="49.65132" lon="4.98868">
        <ele>156.83</ele>
        <time>2020-07-06T11:32:28Z</time>
      </trkpt>
      <trkpt lat="49.65152" lon="4.98885">
        <ele>156.83</ele>
        <time>2020-07-06T11:32:48Z</time>
      </trkpt>
      <trkpt lat="49.6517" lon="4.98902">
        <ele>156.35</ele>
        <time>2020-07-06T11:33:08Z</time>
      </trkpt>
      <trkpt lat="49.65187" lon="4.98919">
        <ele>156.35</ele>
        <time>2020-07-06T11:33:27Z</time>
      </trkpt>
      <trkpt lat="49.65206" lon="4.98938">
        <ele>156.35</ele>
        <time>2020-07-06T11:33:48Z</time>
      </trkpt>
      <trkpt lat="49.65224" lon="4.98955">
        <ele>155.87</ele>
        <time>2020-07-06T11:34:08Z</time>
      </trkpt>
      <trkpt lat="49.65242" lon="4.9897">
        <ele>157.31</ele>
        <time>2020-07-06T11:34:26Z</time>
      </trkpt>
      <trkpt lat="49.65263" lon="4.98989">
        <ele>156.83</ele>
        <time>2020-07-06T11:34:49Z</time>
      </trkpt>
      <trkpt lat="49.65284" lon="4.99004">
        <ele>157.79</ele>
        <time>2020-07-06T11:35:10Z</time>
      </trkpt>
      <trkpt lat="49.65292" lon="4.99014">
        <ele>157.79</ele>
        <time>2020-07-06T11:35:19Z</time>
      </trkpt>
      <trkpt lat="49.65311" lon="4.99033">
        <ele>158.75</ele>
        <time>2020-07-06T11:35:38Z</time>
      </trkpt>
      <trkpt lat="49.65323" lon="4.99054">
        <ele>156.83</ele>
        <time>2020-07-06T11:35:56Z</time>
      </trkpt>
      <trkpt lat="49.6533" lon="4.99082">
        <ele>155.39</ele>
        <time>2020-07-06T11:36:14Z</time>
      </trkpt>
      <trkpt lat="49.6534" lon="4.99111">
        <ele>155.39</ele>
        <time>2020-07-06T11:36:33Z</time>
      </trkpt>
      <trkpt lat="49.6535" lon="4.99138">
        <ele>155.87</ele>
        <time>2020-07-06T11:36:51Z</time>
      </trkpt>
      <trkpt lat="49.65367" lon="4.99162">
        <ele>157.79</ele>
        <time>2020-07-06T11:37:11Z</time>
      </trkpt>
      <trkpt lat="49.65375" lon="4.99185">
        <ele>159.24</ele>
        <time>2020-07-06T11:37:28Z</time>
      </trkpt>
      <trkpt lat="49.65372" lon="4.99191">
        <ele>158.27</ele>
        <time>2020-07-06T11:37:32Z</time>
      </trkpt>
      <trkpt lat="49.65379" lon="4.99195">
        <ele>157.79</ele>
        <time>2020-07-06T11:37:40Z</time>
      </trkpt>
      <trkpt lat="49.65389" lon="4.99195">
        <ele>156.35</ele>
        <time>2020-07-06T11:37:53Z</time>
      </trkpt>
      <trkpt lat="49.6541" lon="4.99221">
        <ele>154.43</ele>
        <time>2020-07-06T11:38:15Z</time>
      </trkpt>
      <trkpt lat="49.65425" lon="4.99244">
        <ele>152.51</ele>
        <time>2020-07-06T11:38:33Z</time>
      </trkpt>
      <trkpt lat="49.65446" lon="4.99271">
        <ele>153.95</ele>
        <time>2020-07-06T11:38:56Z</time>
      </trkpt>
      <trkpt lat="49.65456" lon="4.99285">
        <ele>154.43</ele>
        <time>2020-07-06T11:39:09Z</time>
      </trkpt>
      <trkpt lat="49.65466" lon="4.99283">
        <ele>154.91</ele>
        <time>2020-07-06T11:39:20Z</time>
      </trkpt>
      <trkpt lat="49.65477" lon="4.99257">
        <ele>153.47</ele>
        <time>2020-07-06T11:39:40Z</time>
      </trkpt>
      <trkpt lat="49.65486" lon="4.99228">
        <ele>153.47</ele>
        <time>2020-07-06T11:39:59Z</time>
      </trkpt>
      <trkpt lat="49.65496" lon="4.99197">
        <ele>153.95</ele>
        <time>2020-07-06T11:40:20Z</time>
      </trkpt>
      <trkpt lat="49.65521" lon="4.99208">
        <ele>151.06</ele>
        <time>2020-07-06T11:40:43Z</time>
      </trkpt>
      <trkpt lat="49.65541" lon="4.99221">
        <ele>146.26</ele>
        <time>2020-07-06T11:41:04Z</time>
      </trkpt>
      <trkpt lat="49.65557" lon="4.99237">
        <ele>144.82</ele>
        <time>2020-07-06T11:41:21Z</time>
      </trkpt>
      <trkpt lat="49.65562" lon="4.99247">
        <ele>144.82</ele>
        <time>2020-07-06T11:41:29Z</time>
      </trkpt>
      <trkpt lat="49.65548" lon="4.99273">
        <ele>145.78</ele>
        <time>2020-07-06T11:41:50Z</time>
      </trkpt>
      <trkpt lat="49.65533" lon="4.99299">
        <ele>148.18</ele>
        <time>2020-07-06T11:42:11Z</time>
      </trkpt>
      <trkpt lat="49.65519" lon="4.99324">
        <ele>149.62</ele>
        <time>2020-07-06T11:42:31Z</time>
      </trkpt>
      <trkpt lat="49.65503" lon="4.9935">
        <ele>150.1</ele>
        <time>2020-07-06T11:42:52Z</time>
      </trkpt>
      <trkpt lat="49.65484" lon="4.99381">
        <ele>151.54</ele>
        <time>2020-07-06T11:43:16Z</time>
      </trkpt>
      <trkpt lat="49.65469" lon="4.99406">
        <ele>152.03</ele>
        <time>2020-07-06T11:43:36Z</time>
      </trkpt>
      <trkpt lat="49.65452" lon="4.99435">
        <ele>153.95</ele>
        <time>2020-07-06T11:43:58Z</time>
      </trkpt>
      <trkpt lat="49.65436" lon="4.99459">
        <ele>152.99</ele>
        <time>2020-07-06T11:44:19Z</time>
      </trkpt>
      <trkpt lat="49.65418" lon="4.9949">
        <ele>150.58</ele>
        <time>2020-07-06T11:44:43Z</time>
      </trkpt>
      <trkpt lat="49.65404" lon="4.99515">
        <ele>150.1</ele>
        <time>2020-07-06T11:45:04Z</time>
      </trkpt>
      <trkpt lat="49.65388" lon="4.99543">
        <ele>149.14</ele>
        <time>2020-07-06T11:45:25Z</time>
      </trkpt>
      <trkpt lat="49.65375" lon="4.99565">
        <ele>151.06</ele>
        <time>2020-07-06T11:45:43Z</time>
      </trkpt>
      <trkpt lat="49.6536" lon="4.99591">
        <ele>151.06</ele>
        <time>2020-07-06T11:46:03Z</time>
      </trkpt>
      <trkpt lat="49.65348" lon="4.99612">
        <ele>148.18</ele>
        <time>2020-07-06T11:46:21Z</time>
      </trkpt>
      <trkpt lat="49.65338" lon="4.99639">
        <ele>147.7</ele>
        <time>2020-07-06T11:46:40Z</time>
      </trkpt>
      <trkpt lat="49.65326" lon="4.99666">
        <ele>147.7</ele>
        <time>2020-07-06T11:47:00Z</time>
      </trkpt>
      <trkpt lat="49.65315" lon="4.9969">
        <ele>146.74</ele>
        <time>2020-07-06T11:47:19Z</time>
      </trkpt>
      <trkpt lat="49.65304" lon="4.99716">
        <ele>145.78</ele>
        <time>2020-07-06T11:47:37Z</time>
      </trkpt>
      <trkpt lat="49.65295" lon="4.9974">
        <ele>144.34</ele>
        <time>2020-07-06T11:47:53Z</time>
      </trkpt>
      <trkpt lat="49.65283" lon="4.99767">
        <ele>144.34</ele>
        <time>2020-07-06T11:48:12Z</time>
      </trkpt>
      <trkpt lat="49.65271" lon="4.99795">
        <ele>145.3</ele>
        <time>2020-07-06T11:48:31Z</time>
      </trkpt>
      <trkpt lat="49.65259" lon="4.99819">
        <ele>145.78</ele>
        <time>2020-07-06T11:48:50Z</time>
      </trkpt>
      <trkpt lat="49.65248" lon="4.9984">
        <ele>145.3</ele>
        <time>2020-07-06T11:49:06Z</time>
      </trkpt>
      <trkpt lat="49.65236" lon="4.99859">
        <ele>146.26</ele>
        <time>2020-07-06T11:49:22Z</time>
      </trkpt>
      <trkpt lat="49.65223" lon="4.99878">
        <ele>148.18</ele>
        <time>2020-07-06T11:49:40Z</time>
      </trkpt>
      <trkpt lat="49.6522" lon="4.99891">
        <ele>152.51</ele>
        <time>2020-07-06T11:49:50Z</time>
      </trkpt>
      <trkpt lat="49.65238" lon="4.99913">
        <ele>155.87</ele>
        <time>2020-07-06T11:50:12Z</time>
      </trkpt>
      <trkpt lat="49.65254" lon="4.99932">
        <ele>157.79</ele>
        <time>2020-07-06T11:50:30Z</time>
      </trkpt>
      <trkpt lat="49.65268" lon="4.99943">
        <ele>156.83</ele>
        <time>2020-07-06T11:50:45Z</time>
      </trkpt>
      <trkpt lat="49.65278" lon="4.99957">
        <ele>154.91</ele>
        <time>2020-07-06T11:50:58Z</time>
      </trkpt>
      <trkpt lat="49.65294" lon="4.9998">
        <ele>153.47</ele>
        <time>2020-07-06T11:51:18Z</time>
      </trkpt>
      <trkpt lat="49.65303" lon="4.99993">
        <ele>150.58</ele>
        <time>2020-07-06T11:51:32Z</time>
      </trkpt>
      <trkpt lat="49.65311" lon="5.00004">
        <ele>148.66</ele>
        <time>2020-07-06T11:51:44Z</time>
      </trkpt>
      <trkpt lat="49.6533" lon="5.00025">
        <ele>151.06</ele>
        <time>2020-07-06T11:52:02Z</time>
      </trkpt>
      <trkpt lat="49.6535" lon="5.00047">
        <ele>152.03</ele>
        <time>2020-07-06T11:52:23Z</time>
      </trkpt>
      <trkpt lat="49.65365" lon="5.00061">
        <ele>154.91</ele>
        <time>2020-07-06T11:52:39Z</time>
      </trkpt>
      <trkpt lat="49.65382" lon="5.0008">
        <ele>153.95</ele>
        <time>2020-07-06T11:53:00Z</time>
      </trkpt>
      <trkpt lat="49.65396" lon="5.00097">
        <ele>152.03</ele>
        <time>2020-07-06T11:53:18Z</time>
      </trkpt>
      <trkpt lat="49.65416" lon="5.00128">
        <ele>151.54</ele>
        <time>2020-07-06T11:53:43Z</time>
      </trkpt>
      <trkpt lat="49.65424" lon="5.00144">
        <ele>152.03</ele>
        <time>2020-07-06T11:53:58Z</time>
      </trkpt>
      <trkpt lat="49.65421" lon="5.00157">
        <ele>152.03</ele>
        <time>2020-07-06T11:54:14Z</time>
      </trkpt>
      <trkpt lat="49.65424" lon="5.00165">
        <ele>152.99</ele>
        <time>2020-07-06T11:54:30Z</time>
      </trkpt>
      <trkpt lat="49.65426" lon="5.00169">
        <ele>152.99</ele>
        <time>2020-07-06T11:54:33Z</time>
      </trkpt>
      <trkpt lat="49.6544" lon="5.002">
        <ele>151.54</ele>
        <time>2020-07-06T11:54:55Z</time>
      </trkpt>
      <trkpt lat="49.65453" lon="5.00231">
        <ele>149.62</ele>
        <time>2020-07-06T11:55:17Z</time>
      </trkpt>
      <trkpt lat="49.65466" lon="5.00261">
        <ele>149.14</ele>
        <time>2020-07-06T11:55:39Z</time>
      </trkpt>
      <trkpt lat="49.65483" lon="5.00296">
        <ele>149.14</ele>
        <time>2020-07-06T11:56:04Z</time>
      </trkpt>
      <trkpt lat="49.65498" lon="5.00326">
        <ele>149.14</ele>
        <time>2020-07-06T11:56:26Z</time>
      </trkpt>
      <trkpt lat="49.65512" lon="5.0036">
        <ele>150.1</ele>
        <time>2020-07-06T11:56:50Z</time>
      </trkpt>
      <trkpt lat="49.65526" lon="5.0039">
        <ele>150.58</ele>
        <time>2020-07-06T11:57:12Z</time>
      </trkpt>
      <trkpt lat="49.6554" lon="5.00418">
        <ele>151.54</ele>
        <time>2020-07-06T11:57:33Z</time>
      </trkpt>
      <trkpt lat="49.65553" lon="5.00444">
        <ele>152.03</ele>
        <time>2020-07-06T11:57:52Z</time>
      </trkpt>
      <trkpt lat="49.65567" lon="5.00473">
        <ele>152.03</ele>
        <time>2020-07-06T11:58:14Z</time>
      </trkpt>
      <trkpt lat="49.65574" lon="5.00488">
        <ele>151.54</ele>
        <time>2020-07-06T11:58:32Z</time>
      </trkpt>
      <trkpt lat="49.65588" lon="5.00517">
        <ele>151.54</ele>
        <time>2020-07-06T11:58:54Z</time>
      </trkpt>
      <trkpt lat="49.65601" lon="5.00549">
        <ele>151.54</ele>
        <time>2020-07-06T11:59:16Z</time>
      </trkpt>
      <trkpt lat="49.65615" lon="5.00581">
        <ele>151.06</ele>
        <time>2020-07-06T11:59:40Z</time>
      </trkpt>
      <trkpt lat="49.65629" lon="5.00615">
        <ele>152.03</ele>
        <time>2020-07-06T12:00:02Z</time>
      </trkpt>
      <trkpt lat="49.65637" lon="5.00652">
        <ele>152.03</ele>
        <time>2020-07-06T12:00:25Z</time>
      </trkpt>
      <trkpt lat="49.65644" lon="5.0069">
        <ele>152.03</ele>
        <time>2020-07-06T12:00:49Z</time>
      </trkpt>
      <trkpt lat="49.65649" lon="5.00731">
        <ele>152.51</ele>
        <time>2020-07-06T12:01:13Z</time>
      </trkpt>
      <trkpt lat="49.65652" lon="5.00762">
        <ele>152.51</ele>
        <time>2020-07-06T12:01:32Z</time>
      </trkpt>
      <trkpt lat="49.65659" lon="5.00802">
        <ele>152.99</ele>
        <time>2020-07-06T12:01:55Z</time>
      </trkpt>
      <trkpt lat="49.65662" lon="5.00833">
        <ele>152.03</ele>
        <time>2020-07-06T12:02:15Z</time>
      </trkpt>
      <trkpt lat="49.65667" lon="5.00867">
        <ele>151.06</ele>
        <time>2020-07-06T12:02:37Z</time>
      </trkpt>
      <trkpt lat="49.6567" lon="5.009">
        <ele>151.06</ele>
        <time>2020-07-06T12:02:56Z</time>
      </trkpt>
      <trkpt lat="49.65672" lon="5.00935">
        <ele>150.58</ele>
        <time>2020-07-06T12:03:17Z</time>
      </trkpt>
      <trkpt lat="49.65677" lon="5.0097">
        <ele>151.06</ele>
        <time>2020-07-06T12:03:39Z</time>
      </trkpt>
      <trkpt lat="49.65679" lon="5.01003">
        <ele>150.58</ele>
        <time>2020-07-06T12:03:59Z</time>
      </trkpt>
      <trkpt lat="49.65682" lon="5.0104">
        <ele>151.06</ele>
        <time>2020-07-06T12:04:20Z</time>
      </trkpt>
      <trkpt lat="49.65685" lon="5.01071">
        <ele>150.58</ele>
        <time>2020-07-06T12:04:40Z</time>
      </trkpt>
      <trkpt lat="49.65687" lon="5.01099">
        <ele>150.58</ele>
        <time>2020-07-06T12:04:58Z</time>
      </trkpt>
      <trkpt lat="49.6569" lon="5.01129">
        <ele>150.58</ele>
        <time>2020-07-06T12:05:16Z</time>
      </trkpt>
      <trkpt lat="49.65689" lon="5.01131">
        <ele>149.62</ele>
        <time>2020-07-06T12:05:29Z</time>
      </trkpt>
      <trkpt lat="49.65689" lon="5.01136">
        <ele>149.14</ele>
        <time>2020-07-06T12:05:32Z</time>
      </trkpt>
      <trkpt lat="49.6569" lon="5.01146">
        <ele>148.18</ele>
        <time>2020-07-06T12:05:38Z</time>
      </trkpt>
      <trkpt lat="49.65692" lon="5.01181">
        <ele>147.22</ele>
        <time>2020-07-06T12:05:57Z</time>
      </trkpt>
      <trkpt lat="49.65695" lon="5.01214">
        <ele>147.22</ele>
        <time>2020-07-06T12:06:17Z</time>
      </trkpt>
      <trkpt lat="49.65698" lon="5.01249">
        <ele>149.62</ele>
        <time>2020-07-06T12:06:38Z</time>
      </trkpt>
      <trkpt lat="49.65701" lon="5.0128">
        <ele>151.54</ele>
        <time>2020-07-06T12:06:58Z</time>
      </trkpt>
      <trkpt lat="49.65706" lon="5.01319">
        <ele>152.99</ele>
        <time>2020-07-06T12:07:22Z</time>
      </trkpt>
      <trkpt lat="49.65709" lon="5.01354">
        <ele>154.91</ele>
        <time>2020-07-06T12:07:42Z</time>
      </trkpt>
      <trkpt lat="49.65712" lon="5.01386">
        <ele>153.95</ele>
        <time>2020-07-06T12:08:02Z</time>
      </trkpt>
      <trkpt lat="49.65717" lon="5.01421">
        <ele>154.43</ele>
        <time>2020-07-06T12:08:24Z</time>
      </trkpt>
      <trkpt lat="49.65724" lon="5.01435">
        <ele>153.95</ele>
        <time>2020-07-06T12:08:40Z</time>
      </trkpt>
      <trkpt lat="49.65729" lon="5.01457">
        <ele>152.99</ele>
        <time>2020-07-06T12:08:56Z</time>
      </trkpt>
      <trkpt lat="49.65733" lon="5.01486">
        <ele>152.51</ele>
        <time>2020-07-06T12:09:15Z</time>
      </trkpt>
      <trkpt lat="49.65736" lon="5.01506">
        <ele>152.03</ele>
        <time>2020-07-06T12:09:31Z</time>
      </trkpt>
      <trkpt lat="49.65745" lon="5.01542">
        <ele>152.51</ele>
        <time>2020-07-06T12:09:53Z</time>
      </trkpt>
      <trkpt lat="49.65757" lon="5.01574">
        <ele>152.99</ele>
        <time>2020-07-06T12:10:16Z</time>
      </trkpt>
      <trkpt lat="49.6577" lon="5.01604">
        <ele>151.06</ele>
        <time>2020-07-06T12:10:39Z</time>
      </trkpt>
      <trkpt lat="49.65775" lon="5.01614">
        <ele>150.1</ele>
        <time>2020-07-06T12:10:56Z</time>
      </trkpt>
      <trkpt lat="49.65775" lon="5.01614">
        <ele>150.1</ele>
        <time>2020-07-06T12:10:58Z</time>
      </trkpt>
      <trkpt lat="49.65775" lon="5.01624">
        <ele>150.58</ele>
        <time>2020-07-06T12:11:05Z</time>
      </trkpt>
      <trkpt lat="49.65776" lon="5.01634">
        <ele>150.58</ele>
        <time>2020-07-06T12:11:11Z</time>
      </trkpt>
      <trkpt lat="49.65764" lon="5.01662">
        <ele>151.54</ele>
        <time>2020-07-06T12:11:30Z</time>
      </trkpt>
      <trkpt lat="49.65742" lon="5.0168">
        <ele>153.95</ele>
        <time>2020-07-06T12:11:53Z</time>
      </trkpt>
      <trkpt lat="49.65722" lon="5.01697">
        <ele>154.91</ele>
        <time>2020-07-06T12:12:14Z</time>
      </trkpt>
      <trkpt lat="49.65702" lon="5.01715">
        <ele>155.39</ele>
        <time>2020-07-06T12:12:34Z</time>
      </trkpt>
      <trkpt lat="49.6568" lon="5.01734">
        <ele>155.87</ele>
        <time>2020-07-06T12:12:56Z</time>
      </trkpt>
      <trkpt lat="49.65661" lon="5.0175">
        <ele>156.35</ele>
        <time>2020-07-06T12:13:15Z</time>
      </trkpt>
      <trkpt lat="49.65644" lon="5.01767">
        <ele>155.39</ele>
        <time>2020-07-06T12:13:34Z</time>
      </trkpt>
      <trkpt lat="49.65622" lon="5.01787">
        <ele>155.39</ele>
        <time>2020-07-06T12:13:57Z</time>
      </trkpt>
      <trkpt lat="49.65601" lon="5.01805">
        <ele>156.35</ele>
        <time>2020-07-06T12:14:19Z</time>
      </trkpt>
      <trkpt lat="49.6558" lon="5.01823">
        <ele>155.87</ele>
        <time>2020-07-06T12:14:40Z</time>
      </trkpt>
      <trkpt lat="49.65564" lon="5.01844">
        <ele>154.43</ele>
        <time>2020-07-06T12:15:00Z</time>
      </trkpt>
      <trkpt lat="49.65559" lon="5.01876">
        <ele>154.43</ele>
        <time>2020-07-06T12:15:19Z</time>
      </trkpt>
      <trkpt lat="49.65555" lon="5.01909">
        <ele>153.95</ele>
        <time>2020-07-06T12:15:38Z</time>
      </trkpt>
      <trkpt lat="49.65549" lon="5.01943">
        <ele>153.47</ele>
        <time>2020-07-06T12:15:58Z</time>
      </trkpt>
      <trkpt lat="49.65545" lon="5.0196">
        <ele>153.47</ele>
        <time>2020-07-06T12:16:09Z</time>
      </trkpt>
      <trkpt lat="49.65543" lon="5.0198">
        <ele>152.99</ele>
        <time>2020-07-06T12:16:21Z</time>
      </trkpt>
      <trkpt lat="49.65537" lon="5.02009">
        <ele>152.51</ele>
        <time>2020-07-06T12:16:39Z</time>
      </trkpt>
      <trkpt lat="49.65529" lon="5.02038">
        <ele>152.03</ele>
        <time>2020-07-06T12:16:58Z</time>
      </trkpt>
      <trkpt lat="49.65524" lon="5.02069">
        <ele>151.06</ele>
        <time>2020-07-06T12:17:17Z</time>
      </trkpt>
      <trkpt lat="49.65519" lon="5.02097">
        <ele>152.03</ele>
        <time>2020-07-06T12:17:34Z</time>
      </trkpt>
      <trkpt lat="49.6551" lon="5.02131">
        <ele>152.03</ele>
        <time>2020-07-06T12:17:54Z</time>
      </trkpt>
      <trkpt lat="49.655" lon="5.02164">
        <ele>151.54</ele>
        <time>2020-07-06T12:18:14Z</time>
      </trkpt>
      <trkpt lat="49.65491" lon="5.02192">
        <ele>152.03</ele>
        <time>2020-07-06T12:18:32Z</time>
      </trkpt>
      <trkpt lat="49.6548" lon="5.02226">
        <ele>152.03</ele>
        <time>2020-07-06T12:18:53Z</time>
      </trkpt>
      <trkpt lat="49.6547" lon="5.02261">
        <ele>152.51</ele>
        <time>2020-07-06T12:19:15Z</time>
      </trkpt>
      <trkpt lat="49.6546" lon="5.02288">
        <ele>152.03</ele>
        <time>2020-07-06T12:19:33Z</time>
      </trkpt>
      <trkpt lat="49.65448" lon="5.0232">
        <ele>152.03</ele>
        <time>2020-07-06T12:19:54Z</time>
      </trkpt>
      <trkpt lat="49.65441" lon="5.02337">
        <ele>152.03</ele>
        <time>2020-07-06T12:20:09Z</time>
      </trkpt>
      <trkpt lat="49.6543" lon="5.02369">
        <ele>151.54</ele>
        <time>2020-07-06T12:20:29Z</time>
      </trkpt>
      <trkpt lat="49.6542" lon="5.02396">
        <ele>152.51</ele>
        <time>2020-07-06T12:20:47Z</time>
      </trkpt>
      <trkpt lat="49.65411" lon="5.02425">
        <ele>152.03</ele>
        <time>2020-07-06T12:21:05Z</time>
      </trkpt>
      <trkpt lat="49.65401" lon="5.02455">
        <ele>152.03</ele>
        <time>2020-07-06T12:21:25Z</time>
      </trkpt>
      <trkpt lat="49.65389" lon="5.02489">
        <ele>152.03</ele>
        <time>2020-07-06T12:21:47Z</time>
      </trkpt>
      <trkpt lat="49.65385" lon="5.02526">
        <ele>153.47</ele>
        <time>2020-07-06T12:22:08Z</time>
      </trkpt>
      <trkpt lat="49.65384" lon="5.02558">
        <ele>154.43</ele>
        <time>2020-07-06T12:22:26Z</time>
      </trkpt>
      <trkpt lat="49.65383" lon="5.02589">
        <ele>154.43</ele>
        <time>2020-07-06T12:22:45Z</time>
      </trkpt>
      <trkpt lat="49.65381" lon="5.02625">
        <ele>154.43</ele>
        <time>2020-07-06T12:23:06Z</time>
      </trkpt>
      <trkpt lat="49.65377" lon="5.02664">
        <ele>153.47</ele>
        <time>2020-07-06T12:23:28Z</time>
      </trkpt>
      <trkpt lat="49.65375" lon="5.02692">
        <ele>153.47</ele>
        <time>2020-07-06T12:23:44Z</time>
      </trkpt>
      <trkpt lat="49.65372" lon="5.02726">
        <ele>153.47</ele>
        <time>2020-07-06T12:24:05Z</time>
      </trkpt>
      <trkpt lat="49.6537" lon="5.0275">
        <ele>153.95</ele>
        <time>2020-07-06T12:24:19Z</time>
      </trkpt>
      <trkpt lat="49.65368" lon="5.02781">
        <ele>153.95</ele>
        <time>2020-07-06T12:24:37Z</time>
      </trkpt>
      <trkpt lat="49.65364" lon="5.02814">
        <ele>153.95</ele>
        <time>2020-07-06T12:24:57Z</time>
      </trkpt>
      <trkpt lat="49.65361" lon="5.02845">
        <ele>154.43</ele>
        <time>2020-07-06T12:25:15Z</time>
      </trkpt>
      <trkpt lat="49.65356" lon="5.02879">
        <ele>154.43</ele>
        <time>2020-07-06T12:25:35Z</time>
      </trkpt>
      <trkpt lat="49.65352" lon="5.02911">
        <ele>154.91</ele>
        <time>2020-07-06T12:25:54Z</time>
      </trkpt>
      <trkpt lat="49.65346" lon="5.02942">
        <ele>155.39</ele>
        <time>2020-07-06T12:26:13Z</time>
      </trkpt>
      <trkpt lat="49.65342" lon="5.02968">
        <ele>155.39</ele>
        <time>2020-07-06T12:26:29Z</time>
      </trkpt>
      <trkpt lat="49.65332" lon="5.02999">
        <ele>155.39</ele>
        <time>2020-07-06T12:26:50Z</time>
      </trkpt>
      <trkpt lat="49.65313" lon="5.03021">
        <ele>154.43</ele>
        <time>2020-07-06T12:27:11Z</time>
      </trkpt>
      <trkpt lat="49.65295" lon="5.03039">
        <ele>153.47</ele>
        <time>2020-07-06T12:27:30Z</time>
      </trkpt>
      <trkpt lat="49.65278" lon="5.03056">
        <ele>152.99</ele>
        <time>2020-07-06T12:27:49Z</time>
      </trkpt>
      <trkpt lat="49.6526" lon="5.03074">
        <ele>152.51</ele>
        <time>2020-07-06T12:28:08Z</time>
      </trkpt>
      <trkpt lat="49.65249" lon="5.03104">
        <ele>154.43</ele>
        <time>2020-07-06T12:28:26Z</time>
      </trkpt>
      <trkpt lat="49.65245" lon="5.03125">
        <ele>153.95</ele>
        <time>2020-07-06T12:28:38Z</time>
      </trkpt>
      <trkpt lat="49.65242" lon="5.03161">
        <ele>153.95</ele>
        <time>2020-07-06T12:28:58Z</time>
      </trkpt>
      <trkpt lat="49.65237" lon="5.03196">
        <ele>153.95</ele>
        <time>2020-07-06T12:29:18Z</time>
      </trkpt>
      <trkpt lat="49.65233" lon="5.0323">
        <ele>153.95</ele>
        <time>2020-07-06T12:29:38Z</time>
      </trkpt>
      <trkpt lat="49.65226" lon="5.03265">
        <ele>153.47</ele>
        <time>2020-07-06T12:29:59Z</time>
      </trkpt>
      <trkpt lat="49.65223" lon="5.03302">
        <ele>154.43</ele>
        <time>2020-07-06T12:30:20Z</time>
      </trkpt>
      <trkpt lat="49.65216" lon="5.03333">
        <ele>154.91</ele>
        <time>2020-07-06T12:30:38Z</time>
      </trkpt>
      <trkpt lat="49.65213" lon="5.03359">
        <ele>155.39</ele>
        <time>2020-07-06T12:30:57Z</time>
      </trkpt>
      <trkpt lat="49.65212" lon="5.03359">
        <ele>154.91</ele>
        <time>2020-07-06T12:31:04Z</time>
      </trkpt>
      <trkpt lat="49.65211" lon="5.03362">
        <ele>154.91</ele>
        <time>2020-07-06T12:31:06Z</time>
      </trkpt>
      <trkpt lat="49.65207" lon="5.03394">
        <ele>154.43</ele>
        <time>2020-07-06T12:31:26Z</time>
      </trkpt>
      <trkpt lat="49.65201" lon="5.03428">
        <ele>153.95</ele>
        <time>2020-07-06T12:31:46Z</time>
      </trkpt>
      <trkpt lat="49.65196" lon="5.03464">
        <ele>153.95</ele>
        <time>2020-07-06T12:32:07Z</time>
      </trkpt>
      <trkpt lat="49.65191" lon="5.035">
        <ele>154.43</ele>
        <time>2020-07-06T12:32:28Z</time>
      </trkpt>
      <trkpt lat="49.65184" lon="5.03537">
        <ele>153.95</ele>
        <time>2020-07-06T12:32:51Z</time>
      </trkpt>
      <trkpt lat="49.65181" lon="5.03558">
        <ele>153.95</ele>
        <time>2020-07-06T12:33:04Z</time>
      </trkpt>
      <trkpt lat="49.65175" lon="5.03592">
        <ele>154.43</ele>
        <time>2020-07-06T12:33:23Z</time>
      </trkpt>
      <trkpt lat="49.65171" lon="5.03622">
        <ele>154.43</ele>
        <time>2020-07-06T12:33:41Z</time>
      </trkpt>
      <trkpt lat="49.65165" lon="5.03655">
        <ele>153.47</ele>
        <time>2020-07-06T12:34:01Z</time>
      </trkpt>
      <trkpt lat="49.65158" lon="5.03691">
        <ele>152.99</ele>
        <time>2020-07-06T12:34:23Z</time>
      </trkpt>
      <trkpt lat="49.65153" lon="5.03721">
        <ele>152.51</ele>
        <time>2020-07-06T12:34:42Z</time>
      </trkpt>
      <trkpt lat="49.65147" lon="5.03753">
        <ele>152.99</ele>
        <time>2020-07-06T12:35:01Z</time>
      </trkpt>
      <trkpt lat="49.65143" lon="5.03783">
        <ele>153.47</ele>
        <time>2020-07-06T12:35:19Z</time>
      </trkpt>
      <trkpt lat="49.65138" lon="5.03815">
        <ele>152.99</ele>
        <time>2020-07-06T12:35:39Z</time>
      </trkpt>
      <trkpt lat="49.65134" lon="5.03844">
        <ele>152.99</ele>
        <time>2020-07-06T12:35:58Z</time>
      </trkpt>
      <trkpt lat="49.65129" lon="5.03875">
        <ele>152.51</ele>
        <time>2020-07-06T12:36:16Z</time>
      </trkpt>
      <trkpt lat="49.65123" lon="5.03906">
        <ele>152.99</ele>
        <time>2020-07-06T12:36:35Z</time>
      </trkpt>
      <trkpt lat="49.65116" lon="5.03941">
        <ele>152.99</ele>
        <time>2020-07-06T12:36:56Z</time>
      </trkpt>
      <trkpt lat="49.6511" lon="5.0397">
        <ele>152.99</ele>
        <time>2020-07-06T12:37:14Z</time>
      </trkpt>
      <trkpt lat="49.65104" lon="5.03996">
        <ele>153.47</ele>
        <time>2020-07-06T12:37:31Z</time>
      </trkpt>
      <trkpt lat="49.65097" lon="5.04024">
        <ele>153.47</ele>
        <time>2020-07-06T12:37:48Z</time>
      </trkpt>
      <trkpt lat="49.65085" lon="5.04045">
        <ele>153.95</ele>
        <time>2020-07-06T12:38:05Z</time>
      </trkpt>
      <trkpt lat="49.65083" lon="5.04047">
        <ele>153.95</ele>
        <time>2020-07-06T12:38:24Z</time>
      </trkpt>
      <trkpt lat="49.65073" lon="5.04077">
        <ele>154.91</ele>
        <time>2020-07-06T12:38:44Z</time>
      </trkpt>
      <trkpt lat="49.65067" lon="5.04105">
        <ele>154.91</ele>
        <time>2020-07-06T12:39:02Z</time>
      </trkpt>
      <trkpt lat="49.65059" lon="5.04133">
        <ele>154.91</ele>
        <time>2020-07-06T12:39:21Z</time>
      </trkpt>
      <trkpt lat="49.65053" lon="5.04163">
        <ele>154.91</ele>
        <time>2020-07-06T12:39:40Z</time>
      </trkpt>
      <trkpt lat="49.65047" lon="5.04195">
        <ele>155.39</ele>
        <time>2020-07-06T12:40:00Z</time>
      </trkpt>
      <trkpt lat="49.65042" lon="5.04218">
        <ele>155.87</ele>
        <time>2020-07-06T12:40:16Z</time>
      </trkpt>
      <trkpt lat="49.65038" lon="5.04247">
        <ele>154.91</ele>
        <time>2020-07-06T12:40:33Z</time>
      </trkpt>
      <trkpt lat="49.65036" lon="5.04275">
        <ele>154.91</ele>
        <time>2020-07-06T12:40:50Z</time>
      </trkpt>
      <trkpt lat="49.65034" lon="5.04304">
        <ele>154.91</ele>
        <time>2020-07-06T12:41:07Z</time>
      </trkpt>
      <trkpt lat="49.6503" lon="5.04333">
        <ele>154.91</ele>
        <time>2020-07-06T12:41:24Z</time>
      </trkpt>
      <trkpt lat="49.65029" lon="5.04335">
        <ele>154.91</ele>
        <time>2020-07-06T12:41:25Z</time>
      </trkpt>
      <trkpt lat="49.65028" lon="5.0437">
        <ele>155.87</ele>
        <time>2020-07-06T12:41:45Z</time>
      </trkpt>
      <trkpt lat="49.65024" lon="5.04398">
        <ele>155.39</ele>
        <time>2020-07-06T12:42:03Z</time>
      </trkpt>
      <trkpt lat="49.65019" lon="5.04433">
        <ele>155.39</ele>
        <time>2020-07-06T12:42:23Z</time>
      </trkpt>
      <trkpt lat="49.65016" lon="5.0446">
        <ele>154.43</ele>
        <time>2020-07-06T12:42:40Z</time>
      </trkpt>
      <trkpt lat="49.6501" lon="5.04491">
        <ele>155.87</ele>
        <time>2020-07-06T12:42:58Z</time>
      </trkpt>
      <trkpt lat="49.65006" lon="5.04521">
        <ele>155.87</ele>
        <time>2020-07-06T12:43:16Z</time>
      </trkpt>
      <trkpt lat="49.65001" lon="5.04553">
        <ele>155.39</ele>
        <time>2020-07-06T12:43:34Z</time>
      </trkpt>
      <trkpt lat="49.64998" lon="5.04562">
        <ele>155.87</ele>
        <time>2020-07-06T12:43:40Z</time>
      </trkpt>
      <trkpt lat="49.64998" lon="5.04569">
        <ele>159.72</ele>
        <time>2020-07-06T12:43:58Z</time>
      </trkpt>
      <trkpt lat="49.64996" lon="5.04579">
        <ele>161.16</ele>
        <time>2020-07-06T12:44:06Z</time>
      </trkpt>
      <trkpt lat="49.6499" lon="5.04605">
        <ele>163.56</ele>
        <time>2020-07-06T12:44:24Z</time>
      </trkpt>
      <trkpt lat="49.64981" lon="5.04626">
        <ele>164.52</ele>
        <time>2020-07-06T12:44:40Z</time>
      </trkpt>
      <trkpt lat="49.6497" lon="5.04653">
        <ele>166.45</ele>
        <time>2020-07-06T12:44:59Z</time>
      </trkpt>
      <trkpt lat="49.64958" lon="5.04682">
        <ele>169.33</ele>
        <time>2020-07-06T12:45:17Z</time>
      </trkpt>
      <trkpt lat="49.64955" lon="5.047">
        <ele>169.81</ele>
        <time>2020-07-06T12:45:32Z</time>
      </trkpt>
      <trkpt lat="49.64955" lon="5.04703">
        <ele>170.29</ele>
        <time>2020-07-06T12:45:47Z</time>
      </trkpt>
      <trkpt lat="49.64963" lon="5.04698">
        <ele>169.81</ele>
        <time>2020-07-06T12:46:00Z</time>
      </trkpt>
      <trkpt lat="49.6498" lon="5.04691">
        <ele>168.37</ele>
        <time>2020-07-06T12:46:19Z</time>
      </trkpt>
      <trkpt lat="49.64987" lon="5.0469">
        <ele>167.89</ele>
        <time>2020-07-06T12:46:33Z</time>
      </trkpt>
      <trkpt lat="49.64972" lon="5.04692">
        <ele>166.45</ele>
        <time>2020-07-06T12:46:50Z</time>
      </trkpt>
      <trkpt lat="49.64971" lon="5.04692">
        <ele>166.45</ele>
        <time>2020-07-06T12:46:51Z</time>
      </trkpt>
      <trkpt lat="49.64961" lon="5.04682">
        <ele>167.89</ele>
        <time>2020-07-06T12:47:09Z</time>
      </trkpt>
      <trkpt lat="49.64966" lon="5.04671">
        <ele>166.93</ele>
        <time>2020-07-06T12:47:23Z</time>
      </trkpt>
      <trkpt lat="49.64972" lon="5.04666">
        <ele>167.41</ele>
        <time>2020-07-06T12:47:38Z</time>
      </trkpt>
      <trkpt lat="49.64972" lon="5.04659">
        <ele>168.37</ele>
        <time>2020-07-06T12:47:54Z</time>
      </trkpt>
      <trkpt lat="49.64973" lon="5.04654">
        <ele>168.37</ele>
        <time>2020-07-06T12:48:09Z</time>
      </trkpt>
      <trkpt lat="49.64978" lon="5.0463">
        <ele>163.56</ele>
        <time>2020-07-06T12:48:28Z</time>
      </trkpt>
      <trkpt lat="49.64986" lon="5.04601">
        <ele>162.12</ele>
        <time>2020-07-06T12:48:49Z</time>
      </trkpt>
      <trkpt lat="49.64986" lon="5.04596">
        <ele>161.64</ele>
        <time>2020-07-06T12:49:01Z</time>
      </trkpt>
      <trkpt lat="49.64985" lon="5.04593">
        <ele>162.12</ele>
        <time>2020-07-06T12:49:15Z</time>
      </trkpt>
      <trkpt lat="49.64986" lon="5.0459">
        <ele>162.12</ele>
        <time>2020-07-06T12:49:29Z</time>
      </trkpt>
      <trkpt lat="49.64987" lon="5.04587">
        <ele>162.6</ele>
        <time>2020-07-06T12:49:49Z</time>
      </trkpt>
      <trkpt lat="49.64993" lon="5.04571">
        <ele>163.08</ele>
        <time>2020-07-06T12:50:04Z</time>
      </trkpt>
      <trkpt lat="49.65" lon="5.04566">
        <ele>162.6</ele>
        <time>2020-07-06T12:50:21Z</time>
      </trkpt>
      <trkpt lat="49.65001" lon="5.04566">
        <ele>162.6</ele>
        <time>2020-07-06T12:50:38Z</time>
      </trkpt>
      <trkpt lat="49.65" lon="5.04562">
        <ele>162.12</ele>
        <time>2020-07-06T12:50:53Z</time>
      </trkpt>
      <trkpt lat="49.65002" lon="5.04532">
        <ele>157.79</ele>
        <time>2020-07-06T12:51:13Z</time>
      </trkpt>
      <trkpt lat="49.65005" lon="5.04506">
        <ele>156.35</ele>
        <time>2020-07-06T12:51:31Z</time>
      </trkpt>
      <trkpt lat="49.65005" lon="5.04497">
        <ele>157.31</ele>
        <time>2020-07-06T12:51:46Z</time>
      </trkpt>
      <trkpt lat="49.65005" lon="5.04495">
        <ele>158.27</ele>
        <time>2020-07-06T12:52:07Z</time>
      </trkpt>
      <trkpt lat="49.65004" lon="5.04496">
        <ele>159.72</ele>
        <time>2020-07-06T12:52:29Z</time>
      </trkpt>
      <trkpt lat="49.65005" lon="5.04497">
        <ele>160.2</ele>
        <time>2020-07-06T12:52:51Z</time>
      </trkpt>
      <trkpt lat="49.65005" lon="5.04497">
        <ele>160.68</ele>
        <time>2020-07-06T12:53:02Z</time>
      </trkpt>
      <trkpt lat="49.65005" lon="5.04496">
        <ele>160.68</ele>
        <time>2020-07-06T12:53:18Z</time>
      </trkpt>
      <trkpt lat="49.65004" lon="5.04496">
        <ele>160.2</ele>
        <time>2020-07-06T12:53:52Z</time>
      </trkpt>
      <trkpt lat="49.65004" lon="5.04495">
        <ele>160.68</ele>
        <time>2020-07-06T12:54:12Z</time>
      </trkpt>
      <trkpt lat="49.65004" lon="5.04495">
        <ele>161.16</ele>
        <time>2020-07-06T12:54:29Z</time>
      </trkpt>
      <trkpt lat="49.65003" lon="5.04496">
        <ele>161.64</ele>
        <time>2020-07-06T12:54:59Z</time>
      </trkpt>
      <trkpt lat="49.65003" lon="5.04496">
        <ele>161.64</ele>
        <time>2020-07-06T12:55:17Z</time>
      </trkpt>
      <trkpt lat="49.65003" lon="5.04496">
        <ele>161.64</ele>
        <time>2020-07-06T12:55:29Z</time>
      </trkpt>
      <trkpt lat="49.65003" lon="5.04495">
        <ele>162.12</ele>
        <time>2020-07-06T12:55:46Z</time>
      </trkpt>
      <trkpt lat="49.65004" lon="5.04494">
        <ele>162.12</ele>
        <time>2020-07-06T12:56:10Z</time>
      </trkpt>
      <trkpt lat="49.65004" lon="5.04494">
        <ele>162.12</ele>
        <time>2020-07-06T12:56:37Z</time>
      </trkpt>
      <trkpt lat="49.65004" lon="5.04494">
        <ele>162.12</ele>
        <time>2020-07-06T12:57:00Z</time>
      </trkpt>
      <trkpt lat="49.65004" lon="5.04495">
        <ele>162.6</ele>
        <time>2020-07-06T12:57:25Z</time>
      </trkpt>
      <trkpt lat="49.65005" lon="5.04495">
        <ele>161.16</ele>
        <time>2020-07-06T12:57:55Z</time>
      </trkpt>
      <trkpt lat="49.65005" lon="5.04494">
        <ele>161.16</ele>
        <time>2020-07-06T12:58:09Z</time>
      </trkpt>
      <trkpt lat="49.65005" lon="5.04495">
        <ele>161.16</ele>
        <time>2020-07-06T12:58:31Z</time>
      </trkpt>
      <trkpt lat="49.65005" lon="5.04495">
        <ele>161.64</ele>
        <time>2020-07-06T12:59:01Z</time>
      </trkpt>
      <trkpt lat="49.65005" lon="5.04496">
        <ele>162.12</ele>
        <time>2020-07-06T12:59:26Z</time>
      </trkpt>
      <trkpt lat="49.65005" lon="5.04496">
        <ele>161.64</ele>
        <time>2020-07-06T12:59:47Z</time>
      </trkpt>
      <trkpt lat="49.65005" lon="5.04497">
        <ele>161.64</ele>
        <time>2020-07-06T13:00:06Z</time>
      </trkpt>
      <trkpt lat="49.65005" lon="5.04495">
        <ele>161.64</ele>
        <time>2020-07-06T13:00:27Z</time>
      </trkpt>
      <trkpt lat="49.65005" lon="5.04495">
        <ele>161.16</ele>
        <time>2020-07-06T13:00:52Z</time>
      </trkpt>
      <trkpt lat="49.65005" lon="5.04495">
        <ele>161.16</ele>
        <time>2020-07-06T13:01:14Z</time>
      </trkpt>
      <trkpt lat="49.65005" lon="5.04495">
        <ele>161.16</ele>
        <time>2020-07-06T13:01:38Z</time>
      </trkpt>
      <trkpt lat="49.65004" lon="5.04496">
        <ele>161.64</ele>
        <time>2020-07-06T13:02:02Z</time>
      </trkpt>
      <trkpt lat="49.65004" lon="5.04496">
        <ele>162.12</ele>
        <time>2020-07-06T13:02:25Z</time>
      </trkpt>
      <trkpt lat="49.65004" lon="5.04496">
        <ele>161.64</ele>
        <time>2020-07-06T13:02:41Z</time>
      </trkpt>
      <trkpt lat="49.65004" lon="5.04496">
        <ele>161.64</ele>
        <time>2020-07-06T13:02:59Z</time>
      </trkpt>
      <trkpt lat="49.65003" lon="5.04496">
        <ele>161.64</ele>
        <time>2020-07-06T13:03:25Z</time>
      </trkpt>
      <trkpt lat="49.65004" lon="5.04496">
        <ele>161.64</ele>
        <time>2020-07-06T13:03:41Z</time>
      </trkpt>
      <trkpt lat="49.65004" lon="5.04496">
        <ele>162.12</ele>
        <time>2020-07-06T13:04:05Z</time>
      </trkpt>
      <trkpt lat="49.65004" lon="5.04495">
        <ele>161.64</ele>
        <time>2020-07-06T13:04:25Z</time>
      </trkpt>
      <trkpt lat="49.65004" lon="5.04495">
        <ele>160.68</ele>
        <time>2020-07-06T13:04:51Z</time>
      </trkpt>
      <trkpt lat="49.65005" lon="5.04494">
        <ele>160.68</ele>
        <time>2020-07-06T13:05:13Z</time>
      </trkpt>
      <trkpt lat="49.65006" lon="5.04489">
        <ele>160.68</ele>
        <time>2020-07-06T13:05:26Z</time>
      </trkpt>
      <trkpt lat="49.65007" lon="5.04485">
        <ele>160.2</ele>
        <time>2020-07-06T13:05:29Z</time>
      </trkpt>
      <trkpt lat="49.65011" lon="5.04453">
        <ele>157.79</ele>
        <time>2020-07-06T13:05:47Z</time>
      </trkpt>
      <trkpt lat="49.65016" lon="5.04421">
        <ele>155.39</ele>
        <time>2020-07-06T13:06:07Z</time>
      </trkpt>
      <trkpt lat="49.65022" lon="5.04383">
        <ele>154.43</ele>
        <time>2020-07-06T13:06:29Z</time>
      </trkpt>
      <trkpt lat="49.65025" lon="5.04356">
        <ele>153.95</ele>
        <time>2020-07-06T13:06:46Z</time>
      </trkpt>
      <trkpt lat="49.65028" lon="5.04323">
        <ele>152.03</ele>
        <time>2020-07-06T13:07:07Z</time>
      </trkpt>
      <trkpt lat="49.65032" lon="5.04287">
        <ele>152.03</ele>
        <time>2020-07-06T13:07:28Z</time>
      </trkpt>
      <trkpt lat="49.65034" lon="5.04254">
        <ele>152.03</ele>
        <time>2020-07-06T13:07:48Z</time>
      </trkpt>
      <trkpt lat="49.65037" lon="5.04244">
        <ele>152.03</ele>
        <time>2020-07-06T13:07:54Z</time>
      </trkpt>
      <trkpt lat="49.65042" lon="5.04217">
        <ele>152.99</ele>
        <time>2020-07-06T13:08:12Z</time>
      </trkpt>
      <trkpt lat="49.6505" lon="5.0418">
        <ele>153.47</ele>
        <time>2020-07-06T13:08:34Z</time>
      </trkpt>
      <trkpt lat="49.65056" lon="5.04147">
        <ele>152.51</ele>
        <time>2020-07-06T13:08:54Z</time>
      </trkpt>
      <trkpt lat="49.65062" lon="5.04117">
        <ele>152.99</ele>
        <time>2020-07-06T13:09:13Z</time>
      </trkpt>
      <trkpt lat="49.65067" lon="5.04091">
        <ele>152.99</ele>
        <time>2020-07-06T13:09:30Z</time>
      </trkpt>
      <trkpt lat="49.65069" lon="5.04084">
        <ele>152.99</ele>
        <time>2020-07-06T13:09:34Z</time>
      </trkpt>
      <trkpt lat="49.65077" lon="5.04055">
        <ele>152.99</ele>
        <time>2020-07-06T13:09:53Z</time>
      </trkpt>
      <trkpt lat="49.65092" lon="5.0403">
        <ele>153.47</ele>
        <time>2020-07-06T13:10:13Z</time>
      </trkpt>
      <trkpt lat="49.65099" lon="5.04005">
        <ele>152.99</ele>
        <time>2020-07-06T13:10:30Z</time>
      </trkpt>
      <trkpt lat="49.65107" lon="5.03975">
        <ele>152.03</ele>
        <time>2020-07-06T13:10:49Z</time>
      </trkpt>
      <trkpt lat="49.65114" lon="5.03941">
        <ele>151.06</ele>
        <time>2020-07-06T13:11:11Z</time>
      </trkpt>
      <trkpt lat="49.65122" lon="5.0391">
        <ele>151.06</ele>
        <time>2020-07-06T13:11:30Z</time>
      </trkpt>
      <trkpt lat="49.65127" lon="5.0388">
        <ele>151.54</ele>
        <time>2020-07-06T13:11:49Z</time>
      </trkpt>
      <trkpt lat="49.65133" lon="5.03845">
        <ele>152.03</ele>
        <time>2020-07-06T13:12:10Z</time>
      </trkpt>
      <trkpt lat="49.65138" lon="5.03815">
        <ele>152.03</ele>
        <time>2020-07-06T13:12:29Z</time>
      </trkpt>
      <trkpt lat="49.65143" lon="5.03783">
        <ele>151.54</ele>
        <time>2020-07-06T13:12:49Z</time>
      </trkpt>
      <trkpt lat="49.65149" lon="5.03748">
        <ele>152.51</ele>
        <time>2020-07-06T13:13:09Z</time>
      </trkpt>
      <trkpt lat="49.65154" lon="5.03717">
        <ele>152.51</ele>
        <time>2020-07-06T13:13:28Z</time>
      </trkpt>
      <trkpt lat="49.65159" lon="5.03688">
        <ele>152.51</ele>
        <time>2020-07-06T13:13:46Z</time>
      </trkpt>
      <trkpt lat="49.65165" lon="5.03658">
        <ele>152.51</ele>
        <time>2020-07-06T13:14:05Z</time>
      </trkpt>
      <trkpt lat="49.65171" lon="5.03622">
        <ele>152.51</ele>
        <time>2020-07-06T13:14:27Z</time>
      </trkpt>
      <trkpt lat="49.65175" lon="5.03596">
        <ele>151.54</ele>
        <time>2020-07-06T13:14:44Z</time>
      </trkpt>
      <trkpt lat="49.65182" lon="5.03559">
        <ele>151.54</ele>
        <time>2020-07-06T13:15:06Z</time>
      </trkpt>
      <trkpt lat="49.65187" lon="5.03525">
        <ele>151.06</ele>
        <time>2020-07-06T13:15:26Z</time>
      </trkpt>
      <trkpt lat="49.65193" lon="5.03491">
        <ele>152.03</ele>
        <time>2020-07-06T13:15:46Z</time>
      </trkpt>
      <trkpt lat="49.65197" lon="5.0346">
        <ele>152.51</ele>
        <time>2020-07-06T13:16:05Z</time>
      </trkpt>
      <trkpt lat="49.65201" lon="5.03431">
        <ele>152.03</ele>
        <time>2020-07-06T13:16:23Z</time>
      </trkpt>
      <trkpt lat="49.65206" lon="5.03398">
        <ele>151.54</ele>
        <time>2020-07-06T13:16:42Z</time>
      </trkpt>
      <trkpt lat="49.6521" lon="5.03365">
        <ele>152.51</ele>
        <time>2020-07-06T13:17:02Z</time>
      </trkpt>
      <trkpt lat="49.65214" lon="5.03331">
        <ele>152.03</ele>
        <time>2020-07-06T13:17:23Z</time>
      </trkpt>
      <trkpt lat="49.65215" lon="5.03311">
        <ele>152.03</ele>
        <time>2020-07-06T13:17:35Z</time>
      </trkpt>
      <trkpt lat="49.6522" lon="5.0328">
        <ele>150.1</ele>
        <time>2020-07-06T13:17:54Z</time>
      </trkpt>
      <trkpt lat="49.65225" lon="5.03246">
        <ele>148.18</ele>
        <time>2020-07-06T13:18:15Z</time>
      </trkpt>
      <trkpt lat="49.65229" lon="5.03213">
        <ele>147.7</ele>
        <time>2020-07-06T13:18:34Z</time>
      </trkpt>
      <trkpt lat="49.65234" lon="5.03178">
        <ele>148.18</ele>
        <time>2020-07-06T13:18:55Z</time>
      </trkpt>
      <trkpt lat="49.65236" lon="5.03157">
        <ele>148.18</ele>
        <time>2020-07-06T13:19:08Z</time>
      </trkpt>
      <trkpt lat="49.65241" lon="5.03123">
        <ele>148.66</ele>
        <time>2020-07-06T13:19:28Z</time>
      </trkpt>
      <trkpt lat="49.65249" lon="5.03089">
        <ele>149.62</ele>
        <time>2020-07-06T13:19:48Z</time>
      </trkpt>
      <trkpt lat="49.65259" lon="5.03071">
        <ele>150.58</ele>
        <time>2020-07-06T13:20:03Z</time>
      </trkpt>
      <trkpt lat="49.65273" lon="5.03051">
        <ele>150.58</ele>
        <time>2020-07-06T13:20:21Z</time>
      </trkpt>
      <trkpt lat="49.65288" lon="5.03034">
        <ele>151.06</ele>
        <time>2020-07-06T13:20:40Z</time>
      </trkpt>
      <trkpt lat="49.65306" lon="5.03018">
        <ele>151.54</ele>
        <time>2020-07-06T13:20:59Z</time>
      </trkpt>
      <trkpt lat="49.65322" lon="5.03001">
        <ele>151.54</ele>
        <time>2020-07-06T13:21:18Z</time>
      </trkpt>
      <trkpt lat="49.65336" lon="5.02975">
        <ele>152.03</ele>
        <time>2020-07-06T13:21:37Z</time>
      </trkpt>
      <trkpt lat="49.65342" lon="5.02939">
        <ele>151.54</ele>
        <time>2020-07-06T13:21:59Z</time>
      </trkpt>
      <trkpt lat="49.65347" lon="5.0291">
        <ele>151.06</ele>
        <time>2020-07-06T13:22:17Z</time>
      </trkpt>
      <trkpt lat="49.65352" lon="5.02873">
        <ele>151.06</ele>
        <time>2020-07-06T13:22:39Z</time>
      </trkpt>
      <trkpt lat="49.65355" lon="5.02846">
        <ele>150.58</ele>
        <time>2020-07-06T13:22:56Z</time>
      </trkpt>
      <trkpt lat="49.65359" lon="5.02818">
        <ele>150.58</ele>
        <time>2020-07-06T13:23:13Z</time>
      </trkpt>
      <trkpt lat="49.65363" lon="5.02784">
        <ele>151.06</ele>
        <time>2020-07-06T13:23:34Z</time>
      </trkpt>
      <trkpt lat="49.65367" lon="5.02746">
        <ele>151.06</ele>
        <time>2020-07-06T13:23:57Z</time>
      </trkpt>
      <trkpt lat="49.65369" lon="5.02712">
        <ele>151.54</ele>
        <time>2020-07-06T13:24:17Z</time>
      </trkpt>
      <trkpt lat="49.65373" lon="5.02674">
        <ele>152.51</ele>
        <time>2020-07-06T13:24:40Z</time>
      </trkpt>
      <trkpt lat="49.65375" lon="5.02642">
        <ele>152.51</ele>
        <time>2020-07-06T13:25:00Z</time>
      </trkpt>
      <trkpt lat="49.65378" lon="5.02605">
        <ele>151.54</ele>
        <time>2020-07-06T13:25:21Z</time>
      </trkpt>
      <trkpt lat="49.65379" lon="5.02573">
        <ele>152.03</ele>
        <time>2020-07-06T13:25:40Z</time>
      </trkpt>
      <trkpt lat="49.65381" lon="5.02539">
        <ele>152.51</ele>
        <time>2020-07-06T13:26:00Z</time>
      </trkpt>
      <trkpt lat="49.65382" lon="5.02527">
        <ele>152.51</ele>
        <time>2020-07-06T13:26:07Z</time>
      </trkpt>
      <trkpt lat="49.65384" lon="5.02493">
        <ele>152.51</ele>
        <time>2020-07-06T13:26:28Z</time>
      </trkpt>
      <trkpt lat="49.65393" lon="5.02461">
        <ele>152.03</ele>
        <time>2020-07-06T13:26:49Z</time>
      </trkpt>
      <trkpt lat="49.65404" lon="5.02431">
        <ele>152.03</ele>
        <time>2020-07-06T13:27:10Z</time>
      </trkpt>
      <trkpt lat="49.6541" lon="5.02419">
        <ele>152.03</ele>
        <time>2020-07-06T13:27:18Z</time>
      </trkpt>
      <trkpt lat="49.65421" lon="5.02391">
        <ele>151.54</ele>
        <time>2020-07-06T13:27:40Z</time>
      </trkpt>
      <trkpt lat="49.65431" lon="5.02365">
        <ele>152.03</ele>
        <time>2020-07-06T13:27:58Z</time>
      </trkpt>
      <trkpt lat="49.65441" lon="5.02339">
        <ele>152.51</ele>
        <time>2020-07-06T13:28:16Z</time>
      </trkpt>
      <trkpt lat="49.65445" lon="5.02331">
        <ele>152.99</ele>
        <time>2020-07-06T13:28:22Z</time>
      </trkpt>
      <trkpt lat="49.65457" lon="5.02298">
        <ele>152.99</ele>
        <time>2020-07-06T13:28:45Z</time>
      </trkpt>
      <trkpt lat="49.65466" lon="5.02269">
        <ele>153.47</ele>
        <time>2020-07-06T13:29:04Z</time>
      </trkpt>
      <trkpt lat="49.65474" lon="5.02243">
        <ele>153.47</ele>
        <time>2020-07-06T13:29:22Z</time>
      </trkpt>
      <trkpt lat="49.65483" lon="5.02215">
        <ele>153.47</ele>
        <time>2020-07-06T13:29:41Z</time>
      </trkpt>
      <trkpt lat="49.65493" lon="5.02184">
        <ele>152.51</ele>
        <time>2020-07-06T13:30:01Z</time>
      </trkpt>
      <trkpt lat="49.65502" lon="5.02156">
        <ele>151.54</ele>
        <time>2020-07-06T13:30:20Z</time>
      </trkpt>
      <trkpt lat="49.65506" lon="5.02139">
        <ele>152.03</ele>
        <time>2020-07-06T13:30:31Z</time>
      </trkpt>
      <trkpt lat="49.65514" lon="5.02111">
        <ele>152.03</ele>
        <time>2020-07-06T13:30:50Z</time>
      </trkpt>
      <trkpt lat="49.6552" lon="5.02088">
        <ele>151.06</ele>
        <time>2020-07-06T13:31:06Z</time>
      </trkpt>
      <trkpt lat="49.65522" lon="5.02079">
        <ele>150.58</ele>
        <time>2020-07-06T13:31:12Z</time>
      </trkpt>
      <trkpt lat="49.65526" lon="5.02049">
        <ele>148.66</ele>
        <time>2020-07-06T13:31:31Z</time>
      </trkpt>
      <trkpt lat="49.65534" lon="5.02025">
        <ele>148.66</ele>
        <time>2020-07-06T13:31:47Z</time>
      </trkpt>
      <trkpt lat="49.6554" lon="5.0199">
        <ele>150.58</ele>
        <time>2020-07-06T13:32:08Z</time>
      </trkpt>
      <trkpt lat="49.65544" lon="5.01963">
        <ele>152.03</ele>
        <time>2020-07-06T13:32:25Z</time>
      </trkpt>
      <trkpt lat="49.65549" lon="5.01941">
        <ele>152.99</ele>
        <time>2020-07-06T13:32:39Z</time>
      </trkpt>
      <trkpt lat="49.65553" lon="5.0191">
        <ele>153.95</ele>
        <time>2020-07-06T13:32:58Z</time>
      </trkpt>
      <trkpt lat="49.65556" lon="5.0188">
        <ele>154.43</ele>
        <time>2020-07-06T13:33:16Z</time>
      </trkpt>
      <trkpt lat="49.6556" lon="5.01851">
        <ele>155.39</ele>
        <time>2020-07-06T13:33:35Z</time>
      </trkpt>
      <trkpt lat="49.65575" lon="5.01828">
        <ele>154.91</ele>
        <time>2020-07-06T13:33:55Z</time>
      </trkpt>
      <trkpt lat="49.65593" lon="5.0181">
        <ele>154.91</ele>
        <time>2020-07-06T13:34:16Z</time>
      </trkpt>
      <trkpt lat="49.65594" lon="5.01809">
        <ele>154.91</ele>
        <time>2020-07-06T13:34:17Z</time>
      </trkpt>
      <trkpt lat="49.65607" lon="5.0179">
        <ele>155.87</ele>
        <time>2020-07-06T13:34:36Z</time>
      </trkpt>
      <trkpt lat="49.65619" lon="5.01781">
        <ele>155.39</ele>
        <time>2020-07-06T13:34:50Z</time>
      </trkpt>
      <trkpt lat="49.65638" lon="5.01762">
        <ele>155.39</ele>
        <time>2020-07-06T13:35:11Z</time>
      </trkpt>
      <trkpt lat="49.65656" lon="5.01746">
        <ele>156.35</ele>
        <time>2020-07-06T13:35:30Z</time>
      </trkpt>
      <trkpt lat="49.65675" lon="5.01729">
        <ele>156.83</ele>
        <time>2020-07-06T13:35:51Z</time>
      </trkpt>
      <trkpt lat="49.65693" lon="5.01715">
        <ele>156.35</ele>
        <time>2020-07-06T13:36:09Z</time>
      </trkpt>
      <trkpt lat="49.65712" lon="5.017">
        <ele>157.31</ele>
        <time>2020-07-06T13:36:30Z</time>
      </trkpt>
      <trkpt lat="49.65731" lon="5.01685">
        <ele>156.83</ele>
        <time>2020-07-06T13:36:49Z</time>
      </trkpt>
      <trkpt lat="49.65751" lon="5.01668">
        <ele>155.87</ele>
        <time>2020-07-06T13:37:11Z</time>
      </trkpt>
      <trkpt lat="49.65771" lon="5.01651">
        <ele>155.87</ele>
        <time>2020-07-06T13:37:32Z</time>
      </trkpt>
      <trkpt lat="49.65774" lon="5.01643">
        <ele>156.35</ele>
        <time>2020-07-06T13:37:39Z</time>
      </trkpt>
      <trkpt lat="49.65773" lon="5.01627">
        <ele>156.35</ele>
        <time>2020-07-06T13:37:49Z</time>
      </trkpt>
      <trkpt lat="49.65759" lon="5.01594">
        <ele>155.39</ele>
        <time>2020-07-06T13:38:12Z</time>
      </trkpt>
      <trkpt lat="49.65747" lon="5.01567">
        <ele>154.43</ele>
        <time>2020-07-06T13:38:32Z</time>
      </trkpt>
      <trkpt lat="49.65736" lon="5.01536">
        <ele>154.43</ele>
        <time>2020-07-06T13:38:53Z</time>
      </trkpt>
      <trkpt lat="49.65728" lon="5.01499">
        <ele>154.91</ele>
        <time>2020-07-06T13:39:16Z</time>
      </trkpt>
      <trkpt lat="49.65723" lon="5.01466">
        <ele>154.43</ele>
        <time>2020-07-06T13:39:36Z</time>
      </trkpt>
      <trkpt lat="49.65718" lon="5.01429">
        <ele>154.91</ele>
        <time>2020-07-06T13:40:00Z</time>
      </trkpt>
      <trkpt lat="49.65712" lon="5.01417">
        <ele>153.47</ele>
        <time>2020-07-06T13:40:10Z</time>
      </trkpt>
      <trkpt lat="49.65708" lon="5.01382">
        <ele>153.47</ele>
        <time>2020-07-06T13:40:31Z</time>
      </trkpt>
      <trkpt lat="49.65706" lon="5.01351">
        <ele>153.95</ele>
        <time>2020-07-06T13:40:51Z</time>
      </trkpt>
      <trkpt lat="49.65703" lon="5.01316">
        <ele>152.03</ele>
        <time>2020-07-06T13:41:11Z</time>
      </trkpt>
      <trkpt lat="49.65703" lon="5.01311">
        <ele>151.54</ele>
        <time>2020-07-06T13:41:14Z</time>
      </trkpt>
      <trkpt lat="49.65701" lon="5.01278">
        <ele>149.62</ele>
        <time>2020-07-06T13:41:35Z</time>
      </trkpt>
      <trkpt lat="49.65698" lon="5.01249">
        <ele>148.18</ele>
        <time>2020-07-06T13:41:54Z</time>
      </trkpt>
      <trkpt lat="49.65697" lon="5.01223">
        <ele>146.74</ele>
        <time>2020-07-06T13:42:11Z</time>
      </trkpt>
      <trkpt lat="49.65694" lon="5.01194">
        <ele>148.18</ele>
        <time>2020-07-06T13:42:28Z</time>
      </trkpt>
      <trkpt lat="49.6569" lon="5.01161">
        <ele>152.51</ele>
        <time>2020-07-06T13:42:47Z</time>
      </trkpt>
      <trkpt lat="49.65688" lon="5.0114">
        <ele>152.51</ele>
        <time>2020-07-06T13:43:00Z</time>
      </trkpt>
      <trkpt lat="49.65686" lon="5.01106">
        <ele>152.51</ele>
        <time>2020-07-06T13:43:20Z</time>
      </trkpt>
      <trkpt lat="49.65683" lon="5.01075">
        <ele>153.47</ele>
        <time>2020-07-06T13:43:41Z</time>
      </trkpt>
      <trkpt lat="49.6568" lon="5.01043">
        <ele>154.43</ele>
        <time>2020-07-06T13:44:00Z</time>
      </trkpt>
      <trkpt lat="49.65677" lon="5.01012">
        <ele>154.91</ele>
        <time>2020-07-06T13:44:19Z</time>
      </trkpt>
      <trkpt lat="49.65675" lon="5.00978">
        <ele>154.43</ele>
        <time>2020-07-06T13:44:41Z</time>
      </trkpt>
      <trkpt lat="49.65671" lon="5.00946">
        <ele>155.39</ele>
        <time>2020-07-06T13:45:00Z</time>
      </trkpt>
      <trkpt lat="49.65668" lon="5.00912">
        <ele>154.91</ele>
        <time>2020-07-06T13:45:21Z</time>
      </trkpt>
      <trkpt lat="49.65665" lon="5.00879">
        <ele>154.91</ele>
        <time>2020-07-06T13:45:41Z</time>
      </trkpt>
      <trkpt lat="49.65662" lon="5.00845">
        <ele>155.87</ele>
        <time>2020-07-06T13:46:02Z</time>
      </trkpt>
      <trkpt lat="49.65659" lon="5.00821">
        <ele>155.87</ele>
        <time>2020-07-06T13:46:19Z</time>
      </trkpt>
      <trkpt lat="49.65654" lon="5.00789">
        <ele>155.87</ele>
        <time>2020-07-06T13:46:39Z</time>
      </trkpt>
      <trkpt lat="49.6565" lon="5.00755">
        <ele>154.91</ele>
        <time>2020-07-06T13:46:59Z</time>
      </trkpt>
      <trkpt lat="49.65646" lon="5.00726">
        <ele>154.43</ele>
        <time>2020-07-06T13:47:16Z</time>
      </trkpt>
      <trkpt lat="49.65641" lon="5.00687">
        <ele>154.91</ele>
        <time>2020-07-06T13:47:39Z</time>
      </trkpt>
      <trkpt lat="49.65635" lon="5.00653">
        <ele>154.91</ele>
        <time>2020-07-06T13:48:00Z</time>
      </trkpt>
      <trkpt lat="49.65627" lon="5.00618">
        <ele>154.91</ele>
        <time>2020-07-06T13:48:22Z</time>
      </trkpt>
      <trkpt lat="49.65616" lon="5.00587">
        <ele>154.91</ele>
        <time>2020-07-06T13:48:42Z</time>
      </trkpt>
      <trkpt lat="49.65602" lon="5.00552">
        <ele>155.39</ele>
        <time>2020-07-06T13:49:07Z</time>
      </trkpt>
      <trkpt lat="49.65586" lon="5.00519">
        <ele>154.43</ele>
        <time>2020-07-06T13:49:31Z</time>
      </trkpt>
      <trkpt lat="49.65572" lon="5.00488">
        <ele>154.43</ele>
        <time>2020-07-06T13:49:54Z</time>
      </trkpt>
      <trkpt lat="49.65556" lon="5.00455">
        <ele>155.39</ele>
        <time>2020-07-06T13:50:19Z</time>
      </trkpt>
      <trkpt lat="49.65543" lon="5.00425">
        <ele>155.39</ele>
        <time>2020-07-06T13:50:40Z</time>
      </trkpt>
      <trkpt lat="49.65531" lon="5.00399">
        <ele>154.43</ele>
        <time>2020-07-06T13:50:59Z</time>
      </trkpt>
      <trkpt lat="49.65517" lon="5.00368">
        <ele>153.47</ele>
        <time>2020-07-06T13:51:21Z</time>
      </trkpt>
      <trkpt lat="49.65503" lon="5.00338">
        <ele>153.47</ele>
        <time>2020-07-06T13:51:44Z</time>
      </trkpt>
      <trkpt lat="49.6549" lon="5.00309">
        <ele>152.99</ele>
        <time>2020-07-06T13:52:05Z</time>
      </trkpt>
      <trkpt lat="49.65477" lon="5.0028">
        <ele>152.99</ele>
        <time>2020-07-06T13:52:27Z</time>
      </trkpt>
      <trkpt lat="49.65462" lon="5.00247">
        <ele>152.99</ele>
        <time>2020-07-06T13:52:51Z</time>
      </trkpt>
      <trkpt lat="49.65449" lon="5.0022">
        <ele>153.47</ele>
        <time>2020-07-06T13:53:12Z</time>
      </trkpt>
      <trkpt lat="49.65435" lon="5.0019">
        <ele>152.03</ele>
        <time>2020-07-06T13:53:34Z</time>
      </trkpt>
      <trkpt lat="49.65424" lon="5.00163">
        <ele>151.54</ele>
        <time>2020-07-06T13:53:53Z</time>
      </trkpt>
      <trkpt lat="49.65412" lon="5.00134">
        <ele>152.03</ele>
        <time>2020-07-06T13:54:13Z</time>
      </trkpt>
      <trkpt lat="49.65402" lon="5.00113">
        <ele>151.54</ele>
        <time>2020-07-06T13:54:29Z</time>
      </trkpt>
      <trkpt lat="49.65389" lon="5.00092">
        <ele>150.1</ele>
        <time>2020-07-06T13:54:48Z</time>
      </trkpt>
      <trkpt lat="49.65372" lon="5.00071">
        <ele>151.06</ele>
        <time>2020-07-06T13:55:08Z</time>
      </trkpt>
      <trkpt lat="49.65356" lon="5.00055">
        <ele>152.51</ele>
        <time>2020-07-06T13:55:26Z</time>
      </trkpt>
      <trkpt lat="49.6535" lon="5.00048">
        <ele>152.99</ele>
        <time>2020-07-06T13:55:34Z</time>
      </trkpt>
      <trkpt lat="49.65334" lon="5.00031">
        <ele>153.47</ele>
        <time>2020-07-06T13:55:52Z</time>
      </trkpt>
      <trkpt lat="49.6532" lon="5.00014">
        <ele>153.47</ele>
        <time>2020-07-06T13:56:10Z</time>
      </trkpt>
      <trkpt lat="49.65304" lon="4.99996">
        <ele>150.58</ele>
        <time>2020-07-06T13:56:29Z</time>
      </trkpt>
      <trkpt lat="49.65286" lon="4.99974">
        <ele>148.66</ele>
        <time>2020-07-06T13:56:49Z</time>
      </trkpt>
      <trkpt lat="49.6527" lon="4.99955">
        <ele>152.51</ele>
        <time>2020-07-06T13:57:07Z</time>
      </trkpt>
      <trkpt lat="49.65261" lon="4.99943">
        <ele>153.47</ele>
        <time>2020-07-06T13:57:25Z</time>
      </trkpt>
      <trkpt lat="49.65249" lon="4.99931">
        <ele>156.35</ele>
        <time>2020-07-06T13:57:42Z</time>
      </trkpt>
      <trkpt lat="49.65242" lon="4.99916">
        <ele>157.31</ele>
        <time>2020-07-06T13:57:55Z</time>
      </trkpt>
      <trkpt lat="49.65227" lon="4.999">
        <ele>157.79</ele>
        <time>2020-07-06T13:58:13Z</time>
      </trkpt>
      <trkpt lat="49.6522" lon="4.99884">
        <ele>157.31</ele>
        <time>2020-07-06T13:58:28Z</time>
      </trkpt>
      <trkpt lat="49.65231" lon="4.99861">
        <ele>153.95</ele>
        <time>2020-07-06T13:58:47Z</time>
      </trkpt>
      <trkpt lat="49.65236" lon="4.99854">
        <ele>152.51</ele>
        <time>2020-07-06T13:58:54Z</time>
      </trkpt>
      <trkpt lat="49.65251" lon="4.99831">
        <ele>146.26</ele>
        <time>2020-07-06T13:59:15Z</time>
      </trkpt>
      <trkpt lat="49.65264" lon="4.99809">
        <ele>145.3</ele>
        <time>2020-07-06T13:59:34Z</time>
      </trkpt>
      <trkpt lat="49.65267" lon="4.99806">
        <ele>150.58</ele>
        <time>2020-07-06T13:59:54Z</time>
      </trkpt>
      <trkpt lat="49.65269" lon="4.99802">
        <ele>153.95</ele>
        <time>2020-07-06T14:00:14Z</time>
      </trkpt>
      <trkpt lat="49.65279" lon="4.99778">
        <ele>154.43</ele>
        <time>2020-07-06T14:00:32Z</time>
      </trkpt>
      <trkpt lat="49.6529" lon="4.99753">
        <ele>154.91</ele>
        <time>2020-07-06T14:00:49Z</time>
      </trkpt>
      <trkpt lat="49.653" lon="4.99723">
        <ele>154.91</ele>
        <time>2020-07-06T14:01:10Z</time>
      </trkpt>
      <trkpt lat="49.65313" lon="4.99697">
        <ele>154.43</ele>
        <time>2020-07-06T14:01:30Z</time>
      </trkpt>
      <trkpt lat="49.65323" lon="4.99671">
        <ele>153.95</ele>
        <time>2020-07-06T14:01:50Z</time>
      </trkpt>
      <trkpt lat="49.65336" lon="4.99646">
        <ele>154.43</ele>
        <time>2020-07-06T14:02:08Z</time>
      </trkpt>
      <trkpt lat="49.65345" lon="4.99623">
        <ele>150.58</ele>
        <time>2020-07-06T14:02:27Z</time>
      </trkpt>
      <trkpt lat="49.65358" lon="4.99595">
        <ele>149.14</ele>
        <time>2020-07-06T14:02:49Z</time>
      </trkpt>
      <trkpt lat="49.65371" lon="4.99574">
        <ele>149.14</ele>
        <time>2020-07-06T14:03:07Z</time>
      </trkpt>
      <trkpt lat="49.65385" lon="4.99549">
        <ele>151.06</ele>
        <time>2020-07-06T14:03:28Z</time>
      </trkpt>
      <trkpt lat="49.65395" lon="4.99531">
        <ele>152.99</ele>
        <time>2020-07-06T14:03:43Z</time>
      </trkpt>
      <trkpt lat="49.65408" lon="4.99508">
        <ele>152.03</ele>
        <time>2020-07-06T14:04:01Z</time>
      </trkpt>
      <trkpt lat="49.65424" lon="4.99483">
        <ele>154.43</ele>
        <time>2020-07-06T14:04:22Z</time>
      </trkpt>
      <trkpt lat="49.65438" lon="4.9946">
        <ele>155.87</ele>
        <time>2020-07-06T14:04:42Z</time>
      </trkpt>
      <trkpt lat="49.65452" lon="4.99435">
        <ele>157.31</ele>
        <time>2020-07-06T14:05:03Z</time>
      </trkpt>
      <trkpt lat="49.65466" lon="4.99409">
        <ele>155.87</ele>
        <time>2020-07-06T14:05:24Z</time>
      </trkpt>
      <trkpt lat="49.65479" lon="4.99389">
        <ele>156.35</ele>
        <time>2020-07-06T14:05:42Z</time>
      </trkpt>
      <trkpt lat="49.65493" lon="4.99366">
        <ele>156.35</ele>
        <time>2020-07-06T14:06:02Z</time>
      </trkpt>
      <trkpt lat="49.65507" lon="4.99344">
        <ele>155.87</ele>
        <time>2020-07-06T14:06:21Z</time>
      </trkpt>
      <trkpt lat="49.6552" lon="4.99322">
        <ele>155.87</ele>
        <time>2020-07-06T14:06:39Z</time>
      </trkpt>
      <trkpt lat="49.65532" lon="4.99301">
        <ele>157.31</ele>
        <time>2020-07-06T14:06:57Z</time>
      </trkpt>
      <trkpt lat="49.65541" lon="4.99289">
        <ele>157.79</ele>
        <time>2020-07-06T14:07:08Z</time>
      </trkpt>
      <trkpt lat="49.65554" lon="4.99266">
        <ele>158.27</ele>
        <time>2020-07-06T14:07:27Z</time>
      </trkpt>
      <trkpt lat="49.65564" lon="4.99243">
        <ele>156.35</ele>
        <time>2020-07-06T14:07:47Z</time>
      </trkpt>
      <trkpt lat="49.65563" lon="4.99242">
        <ele>155.87</ele>
        <time>2020-07-06T14:07:49Z</time>
      </trkpt>
      <trkpt lat="49.65547" lon="4.99224">
        <ele>157.31</ele>
        <time>2020-07-06T14:08:07Z</time>
      </trkpt>
      <trkpt lat="49.65533" lon="4.99214">
        <ele>155.39</ele>
        <time>2020-07-06T14:08:22Z</time>
      </trkpt>
      <trkpt lat="49.6551" lon="4.992">
        <ele>157.31</ele>
        <time>2020-07-06T14:08:42Z</time>
      </trkpt>
      <trkpt lat="49.65492" lon="4.99199">
        <ele>159.72</ele>
        <time>2020-07-06T14:08:59Z</time>
      </trkpt>
      <trkpt lat="49.65491" lon="4.992">
        <ele>159.72</ele>
        <time>2020-07-06T14:09:00Z</time>
      </trkpt>
      <trkpt lat="49.65482" lon="4.99235">
        <ele>161.16</ele>
        <time>2020-07-06T14:09:21Z</time>
      </trkpt>
      <trkpt lat="49.65479" lon="4.99252">
        <ele>160.68</ele>
        <time>2020-07-06T14:09:32Z</time>
      </trkpt>
      <trkpt lat="49.65474" lon="4.99268">
        <ele>159.24</ele>
        <time>2020-07-06T14:09:43Z</time>
      </trkpt>
      <trkpt lat="49.65463" lon="4.99283">
        <ele>158.75</ele>
        <time>2020-07-06T14:09:57Z</time>
      </trkpt>
      <trkpt lat="49.65451" lon="4.99278">
        <ele>157.31</ele>
        <time>2020-07-06T14:10:09Z</time>
      </trkpt>
      <trkpt lat="49.65438" lon="4.99261">
        <ele>155.87</ele>
        <time>2020-07-06T14:10:26Z</time>
      </trkpt>
      <trkpt lat="49.65423" lon="4.99237">
        <ele>153.47</ele>
        <time>2020-07-06T14:10:46Z</time>
      </trkpt>
      <trkpt lat="49.65407" lon="4.99212">
        <ele>152.99</ele>
        <time>2020-07-06T14:11:06Z</time>
      </trkpt>
      <trkpt lat="49.65394" lon="4.99193">
        <ele>152.03</ele>
        <time>2020-07-06T14:11:23Z</time>
      </trkpt>
      <trkpt lat="49.65377" lon="4.99191">
        <ele>152.51</ele>
        <time>2020-07-06T14:11:41Z</time>
      </trkpt>
      <trkpt lat="49.65369" lon="4.99192">
        <ele>153.47</ele>
        <time>2020-07-06T14:11:54Z</time>
      </trkpt>
      <trkpt lat="49.65369" lon="4.99188">
        <ele>153.47</ele>
        <time>2020-07-06T14:11:57Z</time>
      </trkpt>
      <trkpt lat="49.65371" lon="4.99172">
        <ele>153.95</ele>
        <time>2020-07-06T14:12:10Z</time>
      </trkpt>
      <trkpt lat="49.6536" lon="4.99151">
        <ele>150.58</ele>
        <time>2020-07-06T14:12:28Z</time>
      </trkpt>
      <trkpt lat="49.65347" lon="4.99124">
        <ele>150.1</ele>
        <time>2020-07-06T14:12:50Z</time>
      </trkpt>
      <trkpt lat="49.65344" lon="4.99117">
        <ele>149.62</ele>
        <time>2020-07-06T14:12:55Z</time>
      </trkpt>
      <trkpt lat="49.65332" lon="4.9909">
        <ele>147.7</ele>
        <time>2020-07-06T14:13:16Z</time>
      </trkpt>
      <trkpt lat="49.65323" lon="4.99062">
        <ele>149.14</ele>
        <time>2020-07-06T14:13:35Z</time>
      </trkpt>
      <trkpt lat="49.6531" lon="4.99035">
        <ele>151.06</ele>
        <time>2020-07-06T14:13:55Z</time>
      </trkpt>
      <trkpt lat="49.65292" lon="4.99014">
        <ele>152.99</ele>
        <time>2020-07-06T14:14:16Z</time>
      </trkpt>
      <trkpt lat="49.65278" lon="4.99002">
        <ele>153.47</ele>
        <time>2020-07-06T14:14:32Z</time>
      </trkpt>
      <trkpt lat="49.6526" lon="4.98988">
        <ele>153.47</ele>
        <time>2020-07-06T14:14:51Z</time>
      </trkpt>
      <trkpt lat="49.65243" lon="4.98975">
        <ele>153.47</ele>
        <time>2020-07-06T14:15:10Z</time>
      </trkpt>
      <trkpt lat="49.65225" lon="4.98958">
        <ele>152.51</ele>
        <time>2020-07-06T14:15:30Z</time>
      </trkpt>
      <trkpt lat="49.65208" lon="4.98942">
        <ele>152.99</ele>
        <time>2020-07-06T14:15:50Z</time>
      </trkpt>
      <trkpt lat="49.6519" lon="4.98925">
        <ele>154.43</ele>
        <time>2020-07-06T14:16:10Z</time>
      </trkpt>
      <trkpt lat="49.65172" lon="4.98906">
        <ele>156.35</ele>
        <time>2020-07-06T14:16:31Z</time>
      </trkpt>
      <trkpt lat="49.65155" lon="4.98891">
        <ele>156.83</ele>
        <time>2020-07-06T14:16:50Z</time>
      </trkpt>
      <trkpt lat="49.65138" lon="4.98873">
        <ele>155.39</ele>
        <time>2020-07-06T14:17:12Z</time>
      </trkpt>
      <trkpt lat="49.65121" lon="4.98858">
        <ele>154.91</ele>
        <time>2020-07-06T14:17:31Z</time>
      </trkpt>
      <trkpt lat="49.65101" lon="4.98839">
        <ele>153.47</ele>
        <time>2020-07-06T14:17:54Z</time>
      </trkpt>
      <trkpt lat="49.65082" lon="4.9882">
        <ele>153.47</ele>
        <time>2020-07-06T14:18:16Z</time>
      </trkpt>
      <trkpt lat="49.65065" lon="4.98804">
        <ele>153.47</ele>
        <time>2020-07-06T14:18:35Z</time>
      </trkpt>
      <trkpt lat="49.65049" lon="4.98789">
        <ele>153.95</ele>
        <time>2020-07-06T14:18:54Z</time>
      </trkpt>
      <trkpt lat="49.65029" lon="4.9877">
        <ele>153.95</ele>
        <time>2020-07-06T14:19:16Z</time>
      </trkpt>
      <trkpt lat="49.65011" lon="4.98752">
        <ele>154.43</ele>
        <time>2020-07-06T14:19:37Z</time>
      </trkpt>
      <trkpt lat="49.6499" lon="4.98749">
        <ele>154.43</ele>
        <time>2020-07-06T14:19:59Z</time>
      </trkpt>
      <trkpt lat="49.64983" lon="4.98749">
        <ele>154.91</ele>
        <time>2020-07-06T14:20:17Z</time>
      </trkpt>
      <trkpt lat="49.64984" lon="4.98749">
        <ele>156.83</ele>
        <time>2020-07-06T14:20:37Z</time>
      </trkpt>
      <trkpt lat="49.64984" lon="4.98748">
        <ele>159.24</ele>
        <time>2020-07-06T14:21:02Z</time>
      </trkpt>
      <trkpt lat="49.64985" lon="4.98747">
        <ele>159.24</ele>
        <time>2020-07-06T14:21:33Z</time>
      </trkpt>
      <trkpt lat="49.64985" lon="4.98747">
        <ele>158.75</ele>
        <time>2020-07-06T14:22:06Z</time>
      </trkpt>
      <trkpt lat="49.64985" lon="4.98746">
        <ele>159.72</ele>
        <time>2020-07-06T14:22:46Z</time>
      </trkpt>
      <trkpt lat="49.64986" lon="4.98747">
        <ele>159.24</ele>
        <time>2020-07-06T14:23:14Z</time>
      </trkpt>
      <trkpt lat="49.64985" lon="4.98747">
        <ele>159.24</ele>
        <time>2020-07-06T14:23:33Z</time>
      </trkpt>
      <trkpt lat="49.64985" lon="4.98746">
        <ele>159.24</ele>
        <time>2020-07-06T14:23:56Z</time>
      </trkpt>
      <trkpt lat="49.64985" lon="4.98747">
        <ele>159.24</ele>
        <time>2020-07-06T14:24:28Z</time>
      </trkpt>
      <trkpt lat="49.64985" lon="4.98747">
        <ele>159.72</ele>
        <time>2020-07-06T14:24:59Z</time>
      </trkpt>
      <trkpt lat="49.64985" lon="4.98748">
        <ele>159.72</ele>
        <time>2020-07-06T14:25:36Z</time>
      </trkpt>
      <trkpt lat="49.64985" lon="4.98748">
        <ele>159.24</ele>
        <time>2020-07-06T14:26:06Z</time>
      </trkpt>
      <trkpt lat="49.64985" lon="4.98748">
        <ele>159.72</ele>
        <time>2020-07-06T14:26:32Z</time>
      </trkpt>
      <trkpt lat="49.64985" lon="4.98746">
        <ele>160.2</ele>
        <time>2020-07-06T14:27:02Z</time>
      </trkpt>
      <trkpt lat="49.64985" lon="4.98746">
        <ele>160.68</ele>
        <time>2020-07-06T14:27:33Z</time>
      </trkpt>
      <trkpt lat="49.64985" lon="4.98746">
        <ele>160.68</ele>
        <time>2020-07-06T14:28:05Z</time>
      </trkpt>
      <trkpt lat="49.64985" lon="4.98747">
        <ele>161.16</ele>
        <time>2020-07-06T14:28:43Z</time>
      </trkpt>
      <trkpt lat="49.64985" lon="4.98748">
        <ele>161.16</ele>
        <time>2020-07-06T14:29:20Z</time>
      </trkpt>
      <trkpt lat="49.64985" lon="4.98747">
        <ele>160.68</ele>
        <time>2020-07-06T14:30:04Z</time>
      </trkpt>
      <trkpt lat="49.64985" lon="4.98747">
        <ele>161.16</ele>
        <time>2020-07-06T14:30:40Z</time>
      </trkpt>
      <trkpt lat="49.64985" lon="4.98748">
        <ele>161.64</ele>
        <time>2020-07-06T14:31:16Z</time>
      </trkpt>
      <trkpt lat="49.64985" lon="4.98747">
        <ele>161.64</ele>
        <time>2020-07-06T14:31:51Z</time>
      </trkpt>
      <trkpt lat="49.64986" lon="4.98747">
        <ele>161.16</ele>
        <time>2020-07-06T14:32:29Z</time>
      </trkpt>
      <trkpt lat="49.64985" lon="4.98747">
        <ele>161.16</ele>
        <time>2020-07-06T14:32:46Z</time>
      </trkpt>
      <trkpt lat="49.64985" lon="4.98747">
        <ele>160.68</ele>
        <time>2020-07-06T14:33:08Z</time>
      </trkpt>
      <trkpt lat="49.64985" lon="4.98747">
        <ele>160.2</ele>
        <time>2020-07-06T14:33:31Z</time>
      </trkpt>
      <trkpt lat="49.64985" lon="4.98747">
        <ele>160.2</ele>
        <time>2020-07-06T14:34:00Z</time>
      </trkpt>
      <trkpt lat="49.64984" lon="4.98731">
        <ele>159.72</ele>
        <time>2020-07-06T14:34:14Z</time>
      </trkpt>
      <trkpt lat="49.64972" lon="4.98717">
        <ele>159.24</ele>
        <time>2020-07-06T14:34:31Z</time>
      </trkpt>
      <trkpt lat="49.64953" lon="4.98699">
        <ele>157.79</ele>
        <time>2020-07-06T14:34:53Z</time>
      </trkpt>
      <trkpt lat="49.64936" lon="4.98684">
        <ele>157.31</ele>
        <time>2020-07-06T14:35:12Z</time>
      </trkpt>
      <trkpt lat="49.6492" lon="4.98678">
        <ele>156.83</ele>
        <time>2020-07-06T14:35:31Z</time>
      </trkpt>
      <trkpt lat="49.64907" lon="4.98672">
        <ele>156.83</ele>
        <time>2020-07-06T14:35:48Z</time>
      </trkpt>
      <trkpt lat="49.64886" lon="4.98655">
        <ele>156.83</ele>
        <time>2020-07-06T14:36:11Z</time>
      </trkpt>
      <trkpt lat="49.64868" lon="4.98643">
        <ele>157.79</ele>
        <time>2020-07-06T14:36:30Z</time>
      </trkpt>
      <trkpt lat="49.64849" lon="4.98631">
        <ele>157.31</ele>
        <time>2020-07-06T14:36:51Z</time>
      </trkpt>
      <trkpt lat="49.64832" lon="4.9862">
        <ele>156.83</ele>
        <time>2020-07-06T14:37:10Z</time>
      </trkpt>
      <trkpt lat="49.64815" lon="4.9861">
        <ele>158.75</ele>
        <time>2020-07-06T14:37:28Z</time>
      </trkpt>
      <trkpt lat="49.64799" lon="4.986">
        <ele>159.24</ele>
        <time>2020-07-06T14:37:46Z</time>
      </trkpt>
      <trkpt lat="49.64784" lon="4.98591">
        <ele>158.27</ele>
        <time>2020-07-06T14:38:03Z</time>
      </trkpt>
      <trkpt lat="49.64769" lon="4.98583">
        <ele>156.35</ele>
        <time>2020-07-06T14:38:19Z</time>
      </trkpt>
      <trkpt lat="49.64747" lon="4.98572">
        <ele>155.39</ele>
        <time>2020-07-06T14:38:41Z</time>
      </trkpt>
      <trkpt lat="49.6473" lon="4.98563">
        <ele>157.79</ele>
        <time>2020-07-06T14:38:58Z</time>
      </trkpt>
      <trkpt lat="49.64714" lon="4.98554">
        <ele>157.79</ele>
        <time>2020-07-06T14:39:16Z</time>
      </trkpt>
      <trkpt lat="49.647" lon="4.98546">
        <ele>156.35</ele>
        <time>2020-07-06T14:39:33Z</time>
      </trkpt>
      <trkpt lat="49.64677" lon="4.98534">
        <ele>157.31</ele>
        <time>2020-07-06T14:39:55Z</time>
      </trkpt>
      <trkpt lat="49.64659" lon="4.98524">
        <ele>156.83</ele>
        <time>2020-07-06T14:40:13Z</time>
      </trkpt>
      <trkpt lat="49.64647" lon="4.98516">
        <ele>158.75</ele>
        <time>2020-07-06T14:40:28Z</time>
      </trkpt>
      <trkpt lat="49.6463" lon="4.98506">
        <ele>161.16</ele>
        <time>2020-07-06T14:40:46Z</time>
      </trkpt>
      <trkpt lat="49.64613" lon="4.98497">
        <ele>161.16</ele>
        <time>2020-07-06T14:41:02Z</time>
      </trkpt>
      <trkpt lat="49.64599" lon="4.98488">
        <ele>158.27</ele>
        <time>2020-07-06T14:41:19Z</time>
      </trkpt>
      <trkpt lat="49.64583" lon="4.98478">
        <ele>155.87</ele>
        <time>2020-07-06T14:41:37Z</time>
      </trkpt>
      <trkpt lat="49.64566" lon="4.98467">
        <ele>152.51</ele>
        <time>2020-07-06T14:41:56Z</time>
      </trkpt>
      <trkpt lat="49.64549" lon="4.98457">
        <ele>149.14</ele>
        <time>2020-07-06T14:42:15Z</time>
      </trkpt>
      <trkpt lat="49.64532" lon="4.98447">
        <ele>149.14</ele>
        <time>2020-07-06T14:42:33Z</time>
      </trkpt>
      <trkpt lat="49.64513" lon="4.9844">
        <ele>152.51</ele>
        <time>2020-07-06T14:42:50Z</time>
      </trkpt>
      <trkpt lat="49.64495" lon="4.98432">
        <ele>156.83</ele>
        <time>2020-07-06T14:43:08Z</time>
      </trkpt>
      <trkpt lat="49.6448" lon="4.9842">
        <ele>157.31</ele>
        <time>2020-07-06T14:43:26Z</time>
      </trkpt>
      <trkpt lat="49.64462" lon="4.98408">
        <ele>155.39</ele>
        <time>2020-07-06T14:43:45Z</time>
      </trkpt>
      <trkpt lat="49.64446" lon="4.98397">
        <ele>154.43</ele>
        <time>2020-07-06T14:44:03Z</time>
      </trkpt>
      <trkpt lat="49.6443" lon="4.98387">
        <ele>153.47</ele>
        <time>2020-07-06T14:44:21Z</time>
      </trkpt>
      <trkpt lat="49.6441" lon="4.98376">
        <ele>155.39</ele>
        <time>2020-07-06T14:44:40Z</time>
      </trkpt>
      <trkpt lat="49.64393" lon="4.98361">
        <ele>156.83</ele>
        <time>2020-07-06T14:44:59Z</time>
      </trkpt>
      <trkpt lat="49.64376" lon="4.98351">
        <ele>157.31</ele>
        <time>2020-07-06T14:45:16Z</time>
      </trkpt>
      <trkpt lat="49.64356" lon="4.98336">
        <ele>158.75</ele>
        <time>2020-07-06T14:45:36Z</time>
      </trkpt>
      <trkpt lat="49.64341" lon="4.98324">
        <ele>159.72</ele>
        <time>2020-07-06T14:45:55Z</time>
      </trkpt>
      <trkpt lat="49.64328" lon="4.98312">
        <ele>157.79</ele>
        <time>2020-07-06T14:46:13Z</time>
      </trkpt>
      <trkpt lat="49.64312" lon="4.98299">
        <ele>156.83</ele>
        <time>2020-07-06T14:46:31Z</time>
      </trkpt>
      <trkpt lat="49.64295" lon="4.98283">
        <ele>154.91</ele>
        <time>2020-07-06T14:46:51Z</time>
      </trkpt>
      <trkpt lat="49.64279" lon="4.9827">
        <ele>154.43</ele>
        <time>2020-07-06T14:47:08Z</time>
      </trkpt>
      <trkpt lat="49.64266" lon="4.98259">
        <ele>156.35</ele>
        <time>2020-07-06T14:47:23Z</time>
      </trkpt>
      <trkpt lat="49.64249" lon="4.98245">
        <ele>156.35</ele>
        <time>2020-07-06T14:47:42Z</time>
      </trkpt>
      <trkpt lat="49.64231" lon="4.98228">
        <ele>155.39</ele>
        <time>2020-07-06T14:48:03Z</time>
      </trkpt>
      <trkpt lat="49.64215" lon="4.98213">
        <ele>156.35</ele>
        <time>2020-07-06T14:48:22Z</time>
      </trkpt>
      <trkpt lat="49.64199" lon="4.98195">
        <ele>159.72</ele>
        <time>2020-07-06T14:48:40Z</time>
      </trkpt>
      <trkpt lat="49.64186" lon="4.98183">
        <ele>159.72</ele>
        <time>2020-07-06T14:48:59Z</time>
      </trkpt>
      <trkpt lat="49.64172" lon="4.98169">
        <ele>158.75</ele>
        <time>2020-07-06T14:49:16Z</time>
      </trkpt>
      <trkpt lat="49.64157" lon="4.98156">
        <ele>161.16</ele>
        <time>2020-07-06T14:49:33Z</time>
      </trkpt>
      <trkpt lat="49.64143" lon="4.98145">
        <ele>162.12</ele>
        <time>2020-07-06T14:49:49Z</time>
      </trkpt>
      <trkpt lat="49.64127" lon="4.9813">
        <ele>162.6</ele>
        <time>2020-07-06T14:50:07Z</time>
      </trkpt>
      <trkpt lat="49.64109" lon="4.98111">
        <ele>160.68</ele>
        <time>2020-07-06T14:50:27Z</time>
      </trkpt>
      <trkpt lat="49.64094" lon="4.98097">
        <ele>162.12</ele>
        <time>2020-07-06T14:50:44Z</time>
      </trkpt>
      <trkpt lat="49.64079" lon="4.98083">
        <ele>161.16</ele>
        <time>2020-07-06T14:51:02Z</time>
      </trkpt>
      <trkpt lat="49.64066" lon="4.9807">
        <ele>160.2</ele>
        <time>2020-07-06T14:51:18Z</time>
      </trkpt>
      <trkpt lat="49.64048" lon="4.98054">
        <ele>159.24</ele>
        <time>2020-07-06T14:51:37Z</time>
      </trkpt>
      <trkpt lat="49.64037" lon="4.98045">
        <ele>159.72</ele>
        <time>2020-07-06T14:51:54Z</time>
      </trkpt>
      <trkpt lat="49.64019" lon="4.98029">
        <ele>158.27</ele>
        <time>2020-07-06T14:52:13Z</time>
      </trkpt>
      <trkpt lat="49.64002" lon="4.98011">
        <ele>160.2</ele>
        <time>2020-07-06T14:52:33Z</time>
      </trkpt>
      <trkpt lat="49.63988" lon="4.97999">
        <ele>160.2</ele>
        <time>2020-07-06T14:52:50Z</time>
      </trkpt>
      <trkpt lat="49.63973" lon="4.97984">
        <ele>161.16</ele>
        <time>2020-07-06T14:53:09Z</time>
      </trkpt>
      <trkpt lat="49.63956" lon="4.97969">
        <ele>160.2</ele>
        <time>2020-07-06T14:53:29Z</time>
      </trkpt>
      <trkpt lat="49.63941" lon="4.97955">
        <ele>159.24</ele>
        <time>2020-07-06T14:53:47Z</time>
      </trkpt>
      <trkpt lat="49.63925" lon="4.97939">
        <ele>159.72</ele>
        <time>2020-07-06T14:54:05Z</time>
      </trkpt>
      <trkpt lat="49.63917" lon="4.97932">
        <ele>158.75</ele>
        <time>2020-07-06T14:54:21Z</time>
      </trkpt>
      <trkpt lat="49.63902" lon="4.97917">
        <ele>156.35</ele>
        <time>2020-07-06T14:54:40Z</time>
      </trkpt>
      <trkpt lat="49.63881" lon="4.97896">
        <ele>157.79</ele>
        <time>2020-07-06T14:55:00Z</time>
      </trkpt>
      <trkpt lat="49.63867" lon="4.97882">
        <ele>157.79</ele>
        <time>2020-07-06T14:55:17Z</time>
      </trkpt>
      <trkpt lat="49.63851" lon="4.97868">
        <ele>160.2</ele>
        <time>2020-07-06T14:55:34Z</time>
      </trkpt>
      <trkpt lat="49.63836" lon="4.97854">
        <ele>159.24</ele>
        <time>2020-07-06T14:55:52Z</time>
      </trkpt>
      <trkpt lat="49.63823" lon="4.97842">
        <ele>157.79</ele>
        <time>2020-07-06T14:56:09Z</time>
      </trkpt>
      <trkpt lat="49.63807" lon="4.97827">
        <ele>158.75</ele>
        <time>2020-07-06T14:56:26Z</time>
      </trkpt>
      <trkpt lat="49.63793" lon="4.97812">
        <ele>160.68</ele>
        <time>2020-07-06T14:56:43Z</time>
      </trkpt>
      <trkpt lat="49.63776" lon="4.97798">
        <ele>160.68</ele>
        <time>2020-07-06T14:57:03Z</time>
      </trkpt>
      <trkpt lat="49.63762" lon="4.97786">
        <ele>160.68</ele>
        <time>2020-07-06T14:57:18Z</time>
      </trkpt>
      <trkpt lat="49.63747" lon="4.97773">
        <ele>159.24</ele>
        <time>2020-07-06T14:57:37Z</time>
      </trkpt>
      <trkpt lat="49.63733" lon="4.97765">
        <ele>160.2</ele>
        <time>2020-07-06T14:57:55Z</time>
      </trkpt>
      <trkpt lat="49.6372" lon="4.97755">
        <ele>162.12</ele>
        <time>2020-07-06T14:58:11Z</time>
      </trkpt>
      <trkpt lat="49.63705" lon="4.97743">
        <ele>163.08</ele>
        <time>2020-07-06T14:58:27Z</time>
      </trkpt>
      <trkpt lat="49.63691" lon="4.97732">
        <ele>162.6</ele>
        <time>2020-07-06T14:58:44Z</time>
      </trkpt>
      <trkpt lat="49.63674" lon="4.97718">
        <ele>164.04</ele>
        <time>2020-07-06T14:59:03Z</time>
      </trkpt>
      <trkpt lat="49.63656" lon="4.97703">
        <ele>164.52</ele>
        <time>2020-07-06T14:59:23Z</time>
      </trkpt>
      <trkpt lat="49.63641" lon="4.97691">
        <ele>165.48</ele>
        <time>2020-07-06T14:59:41Z</time>
      </trkpt>
      <trkpt lat="49.63625" lon="4.97676">
        <ele>165</ele>
        <time>2020-07-06T15:00:01Z</time>
      </trkpt>
      <trkpt lat="49.63615" lon="4.97666">
        <ele>164.52</ele>
        <time>2020-07-06T15:00:14Z</time>
      </trkpt>
      <trkpt lat="49.63613" lon="4.97665">
        <ele>165</ele>
        <time>2020-07-06T15:00:28Z</time>
      </trkpt>
      <trkpt lat="49.63604" lon="4.97669">
        <ele>165.48</ele>
        <time>2020-07-06T15:00:45Z</time>
      </trkpt>
      <trkpt lat="49.63591" lon="4.97676">
        <ele>162.12</ele>
        <time>2020-07-06T15:01:02Z</time>
      </trkpt>
      <trkpt lat="49.63581" lon="4.97694">
        <ele>156.35</ele>
        <time>2020-07-06T15:01:21Z</time>
      </trkpt>
      <trkpt lat="49.63571" lon="4.97712">
        <ele>154.43</ele>
        <time>2020-07-06T15:01:38Z</time>
      </trkpt>
      <trkpt lat="49.63558" lon="4.97736">
        <ele>154.43</ele>
        <time>2020-07-06T15:01:57Z</time>
      </trkpt>
      <trkpt lat="49.63548" lon="4.97752">
        <ele>157.31</ele>
        <time>2020-07-06T15:02:17Z</time>
      </trkpt>
      <trkpt lat="49.63541" lon="4.97771">
        <ele>159.72</ele>
        <time>2020-07-06T15:02:32Z</time>
      </trkpt>
      <trkpt lat="49.63526" lon="4.97791">
        <ele>160.68</ele>
        <time>2020-07-06T15:02:51Z</time>
      </trkpt>
      <trkpt lat="49.63512" lon="4.97806">
        <ele>158.27</ele>
        <time>2020-07-06T15:03:09Z</time>
      </trkpt>
      <trkpt lat="49.63497" lon="4.97818">
        <ele>159.24</ele>
        <time>2020-07-06T15:03:26Z</time>
      </trkpt>
      <trkpt lat="49.63487" lon="4.97834">
        <ele>160.2</ele>
        <time>2020-07-06T15:03:46Z</time>
      </trkpt>
      <trkpt lat="49.63484" lon="4.97842">
        <ele>162.12</ele>
        <time>2020-07-06T15:04:00Z</time>
      </trkpt>
      <trkpt lat="49.63473" lon="4.97854">
        <ele>159.72</ele>
        <time>2020-07-06T15:04:15Z</time>
      </trkpt>
      <trkpt lat="49.63458" lon="4.97874">
        <ele>156.83</ele>
        <time>2020-07-06T15:04:33Z</time>
      </trkpt>
      <trkpt lat="49.63448" lon="4.9789">
        <ele>158.75</ele>
        <time>2020-07-06T15:04:49Z</time>
      </trkpt>
      <trkpt lat="49.63436" lon="4.97897">
        <ele>159.72</ele>
        <time>2020-07-06T15:05:05Z</time>
      </trkpt>
      <trkpt lat="49.63417" lon="4.97907">
        <ele>167.89</ele>
        <time>2020-07-06T15:05:22Z</time>
      </trkpt>
      <trkpt lat="49.63406" lon="4.97915">
        <ele>168.37</ele>
        <time>2020-07-06T15:05:38Z</time>
      </trkpt>
      <trkpt lat="49.63393" lon="4.97931">
        <ele>168.37</ele>
        <time>2020-07-06T15:05:57Z</time>
      </trkpt>
      <trkpt lat="49.63386" lon="4.97949">
        <ele>169.33</ele>
        <time>2020-07-06T15:06:13Z</time>
      </trkpt>
      <trkpt lat="49.63395" lon="4.97964">
        <ele>166.93</ele>
        <time>2020-07-06T15:06:30Z</time>
      </trkpt>
      <trkpt lat="49.63405" lon="4.97985">
        <ele>165.48</ele>
        <time>2020-07-06T15:06:49Z</time>
      </trkpt>
      <trkpt lat="49.63417" lon="4.98003">
        <ele>163.56</ele>
        <time>2020-07-06T15:07:07Z</time>
      </trkpt>
      <trkpt lat="49.63425" lon="4.98018">
        <ele>166.45</ele>
        <time>2020-07-06T15:07:20Z</time>
      </trkpt>
      <trkpt lat="49.63437" lon="4.98039">
        <ele>174.62</ele>
        <time>2020-07-06T15:07:37Z</time>
      </trkpt>
      <trkpt lat="49.63449" lon="4.98049">
        <ele>178.94</ele>
        <time>2020-07-06T15:07:54Z</time>
      </trkpt>
      <trkpt lat="49.6345" lon="4.98049">
        <ele>179.9</ele>
        <time>2020-07-06T15:08:14Z</time>
      </trkpt>
      <trkpt lat="49.63451" lon="4.98047">
        <ele>183.75</ele>
        <time>2020-07-06T15:08:24Z</time>
      </trkpt>
      <trkpt lat="49.63464" lon="4.98077">
        <ele>156.35</ele>
        <time>2020-07-06T15:16:20Z</time>
      </trkpt>
      <trkpt lat="49.63462" lon="4.98077">
        <ele>149.62</ele>
        <time>2020-07-06T15:16:25Z</time>
      </trkpt>
    </trkseg>
  </trk>
</gpx>